﻿<?xml version="1.0" encoding="UTF-8" standalone="no"?>
<gpx xmlns="http://www.topografix.com/GPX/1/1" xmlns:gpxtpx="http://www.garmin.com/xmlschemas/TrackPointExtension/v1" xmlns:xsi="http://www.w3.org/2001/XMLSchema-instance" creator="Hribi.net" version="1.1" xsi:schemaLocation="http://www.topografix.com/GPX/1/1 http://www.topografix.com/GPX/1/1/gpx.xsd http://www.garmin.com/xmlschemas/TrackPointExtension/v1 http://www.garmin.com/xmlschemas/TrackPointExtensionv1.xsd">
  <metadata>
    <name>GPS sled</name>
    <desc>www.hribi.net</desc>
    <author>
      <name>hribi.net</name>
    </author>
    <link href="http://www.hribi.net">
      <text>Hribi.net</text>
    </link>
  </metadata>
  <trk>
    <trkseg>
      <trkpt lat="45.998939" lon="13.891674">
        <ele>988</ele>
        <time>2021-01-19T08:21:04Z</time>
      </trkpt>
      <trkpt lat="45.998939" lon="13.891674">
        <ele>988</ele>
        <time>2021-01-19T08:21:05Z</time>
      </trkpt>
      <trkpt lat="45.998939" lon="13.891674">
        <ele>988</ele>
        <time>2021-01-19T08:21:10Z</time>
      </trkpt>
      <trkpt lat="45.998939" lon="13.891674">
        <ele>988</ele>
        <time>2021-01-19T08:23:08Z</time>
      </trkpt>
      <trkpt lat="45.998707" lon="13.891908">
        <ele>987</ele>
        <time>2021-01-19T08:23:09Z</time>
      </trkpt>
      <trkpt lat="45.998651" lon="13.891983">
        <ele>989</ele>
        <time>2021-01-19T08:23:36Z</time>
      </trkpt>
      <trkpt lat="45.998651" lon="13.891983">
        <ele>989</ele>
        <time>2021-01-19T08:23:43Z</time>
      </trkpt>
      <trkpt lat="45.998471" lon="13.892207">
        <ele>989</ele>
        <time>2021-01-19T08:23:44Z</time>
      </trkpt>
      <trkpt lat="45.998448" lon="13.892238">
        <ele>990</ele>
        <time>2021-01-19T08:24:10Z</time>
      </trkpt>
      <trkpt lat="45.998448" lon="13.892238">
        <ele>990</ele>
        <time>2021-01-19T08:24:13Z</time>
      </trkpt>
      <trkpt lat="45.99827" lon="13.892488">
        <ele>990</ele>
        <time>2021-01-19T08:24:14Z</time>
      </trkpt>
      <trkpt lat="45.998246" lon="13.892524">
        <ele>991</ele>
        <time>2021-01-19T08:24:40Z</time>
      </trkpt>
      <trkpt lat="45.998246" lon="13.892524">
        <ele>991</ele>
        <time>2021-01-19T08:25:30Z</time>
      </trkpt>
      <trkpt lat="45.99802" lon="13.892993">
        <ele>994</ele>
        <time>2021-01-19T08:25:31Z</time>
      </trkpt>
      <trkpt lat="45.998004" lon="13.893028">
        <ele>994</ele>
        <time>2021-01-19T08:25:58Z</time>
      </trkpt>
      <trkpt lat="45.998004" lon="13.893028">
        <ele>994</ele>
        <time>2021-01-19T08:26:39Z</time>
      </trkpt>
      <trkpt lat="45.997852" lon="13.893289">
        <ele>995</ele>
        <time>2021-01-19T08:26:40Z</time>
      </trkpt>
      <trkpt lat="45.997755" lon="13.893417">
        <ele>995</ele>
        <time>2021-01-19T08:27:00Z</time>
      </trkpt>
      <trkpt lat="45.99766" lon="13.893533">
        <ele>995</ele>
        <time>2021-01-19T08:27:01Z</time>
      </trkpt>
      <trkpt lat="45.997599" lon="13.893605">
        <ele>995</ele>
        <time>2021-01-19T08:27:29Z</time>
      </trkpt>
      <trkpt lat="45.997599" lon="13.893605">
        <ele>995</ele>
        <time>2021-01-19T08:28:17Z</time>
      </trkpt>
      <trkpt lat="45.997397" lon="13.893747">
        <ele>994</ele>
        <time>2021-01-19T08:28:18Z</time>
      </trkpt>
      <trkpt lat="45.997298" lon="13.893812">
        <ele>994</ele>
        <time>2021-01-19T08:28:21Z</time>
      </trkpt>
      <trkpt lat="45.997216" lon="13.893901">
        <ele>994</ele>
        <time>2021-01-19T08:28:24Z</time>
      </trkpt>
      <trkpt lat="45.997202" lon="13.893916">
        <ele>994</ele>
        <time>2021-01-19T08:28:50Z</time>
      </trkpt>
      <trkpt lat="45.997202" lon="13.893916">
        <ele>994</ele>
        <time>2021-01-19T08:30:53Z</time>
      </trkpt>
      <trkpt lat="45.996612" lon="13.89455">
        <ele>996</ele>
        <time>2021-01-19T08:30:54Z</time>
      </trkpt>
      <trkpt lat="45.996564" lon="13.894614">
        <ele>998</ele>
        <time>2021-01-19T08:31:22Z</time>
      </trkpt>
      <trkpt lat="45.996564" lon="13.894614">
        <ele>998</ele>
        <time>2021-01-19T08:31:35Z</time>
      </trkpt>
      <trkpt lat="45.996381" lon="13.894811">
        <ele>999</ele>
        <time>2021-01-19T08:31:36Z</time>
      </trkpt>
      <trkpt lat="45.996291" lon="13.894866">
        <ele>1000</ele>
        <time>2021-01-19T08:31:58Z</time>
      </trkpt>
      <trkpt lat="45.996208" lon="13.894913">
        <ele>1001</ele>
        <time>2021-01-19T08:31:59Z</time>
      </trkpt>
      <trkpt lat="45.996208" lon="13.894913">
        <ele>1001</ele>
        <time>2021-01-19T08:32:33Z</time>
      </trkpt>
      <trkpt lat="45.995967" lon="13.895104">
        <ele>1005</ele>
        <time>2021-01-19T08:32:34Z</time>
      </trkpt>
      <trkpt lat="45.995876" lon="13.895188">
        <ele>1010</ele>
        <time>2021-01-19T08:32:59Z</time>
      </trkpt>
      <trkpt lat="45.995773" lon="13.895345">
        <ele>1013</ele>
        <time>2021-01-19T08:33:18Z</time>
      </trkpt>
      <trkpt lat="45.995726" lon="13.895431">
        <ele>1015</ele>
        <time>2021-01-19T08:33:44Z</time>
      </trkpt>
      <trkpt lat="45.995726" lon="13.895431">
        <ele>1015</ele>
        <time>2021-01-19T08:38:54Z</time>
      </trkpt>
      <trkpt lat="45.995444" lon="13.895909">
        <ele>1018</ele>
        <time>2021-01-19T08:38:55Z</time>
      </trkpt>
      <trkpt lat="45.995426" lon="13.895954">
        <ele>1019</ele>
        <time>2021-01-19T08:39:21Z</time>
      </trkpt>
      <trkpt lat="45.995426" lon="13.895954">
        <ele>1019</ele>
        <time>2021-01-19T08:40:31Z</time>
      </trkpt>
      <trkpt lat="45.995056" lon="13.896591">
        <ele>1023</ele>
        <time>2021-01-19T08:40:32Z</time>
      </trkpt>
      <trkpt lat="45.995" lon="13.896695">
        <ele>1023</ele>
        <time>2021-01-19T08:40:36Z</time>
      </trkpt>
      <trkpt lat="45.994999" lon="13.896697">
        <ele>1026</ele>
        <time>2021-01-19T08:41:00Z</time>
      </trkpt>
      <trkpt lat="45.994999" lon="13.896697">
        <ele>1026</ele>
        <time>2021-01-19T08:41:12Z</time>
      </trkpt>
      <trkpt lat="45.994807" lon="13.896895">
        <ele>1028</ele>
        <time>2021-01-19T08:41:13Z</time>
      </trkpt>
      <trkpt lat="45.9948" lon="13.896904">
        <ele>1030</ele>
        <time>2021-01-19T08:41:37Z</time>
      </trkpt>
      <trkpt lat="45.9948" lon="13.896904">
        <ele>1030</ele>
        <time>2021-01-19T08:41:54Z</time>
      </trkpt>
      <trkpt lat="45.994656" lon="13.897175">
        <ele>1032</ele>
        <time>2021-01-19T08:41:55Z</time>
      </trkpt>
      <trkpt lat="45.994635" lon="13.897212">
        <ele>1034</ele>
        <time>2021-01-19T08:42:21Z</time>
      </trkpt>
      <trkpt lat="45.994635" lon="13.897212">
        <ele>1034</ele>
        <time>2021-01-19T08:44:07Z</time>
      </trkpt>
      <trkpt lat="45.994553" lon="13.897528">
        <ele>1035</ele>
        <time>2021-01-19T08:44:08Z</time>
      </trkpt>
      <trkpt lat="45.994551" lon="13.897536">
        <ele>1035</ele>
        <time>2021-01-19T08:44:32Z</time>
      </trkpt>
      <trkpt lat="45.994551" lon="13.897536">
        <ele>1035</ele>
        <time>2021-01-19T08:46:22Z</time>
      </trkpt>
      <trkpt lat="45.994447" lon="13.897852">
        <ele>1039</ele>
        <time>2021-01-19T08:46:23Z</time>
      </trkpt>
      <trkpt lat="45.994358" lon="13.897936">
        <ele>1040</ele>
        <time>2021-01-19T08:46:27Z</time>
      </trkpt>
      <trkpt lat="45.994287" lon="13.898045">
        <ele>1040</ele>
        <time>2021-01-19T08:46:30Z</time>
      </trkpt>
      <trkpt lat="45.994214" lon="13.898148">
        <ele>1045</ele>
        <time>2021-01-19T08:46:44Z</time>
      </trkpt>
      <trkpt lat="45.994142" lon="13.89824">
        <ele>1049</ele>
        <time>2021-01-19T08:46:59Z</time>
      </trkpt>
      <trkpt lat="45.994116" lon="13.898286">
        <ele>1054</ele>
        <time>2021-01-19T08:47:25Z</time>
      </trkpt>
      <trkpt lat="45.994116" lon="13.898286">
        <ele>1054</ele>
        <time>2021-01-19T08:48:00Z</time>
      </trkpt>
      <trkpt lat="45.993924" lon="13.898503">
        <ele>1055</ele>
        <time>2021-01-19T08:48:01Z</time>
      </trkpt>
      <trkpt lat="45.993902" lon="13.898528">
        <ele>1056</ele>
        <time>2021-01-19T08:48:26Z</time>
      </trkpt>
      <trkpt lat="45.993902" lon="13.898528">
        <ele>1056</ele>
        <time>2021-01-19T08:48:54Z</time>
      </trkpt>
      <trkpt lat="45.993671" lon="13.898672">
        <ele>1056</ele>
        <time>2021-01-19T08:48:55Z</time>
      </trkpt>
      <trkpt lat="45.99359" lon="13.898747">
        <ele>1056</ele>
        <time>2021-01-19T08:49:04Z</time>
      </trkpt>
      <trkpt lat="45.993504" lon="13.898826">
        <ele>1055</ele>
        <time>2021-01-19T08:49:21Z</time>
      </trkpt>
      <trkpt lat="45.993422" lon="13.898888">
        <ele>1055</ele>
        <time>2021-01-19T08:49:33Z</time>
      </trkpt>
      <trkpt lat="45.993329" lon="13.898923">
        <ele>1057</ele>
        <time>2021-01-19T08:50:00Z</time>
      </trkpt>
      <trkpt lat="45.993296" lon="13.898931">
        <ele>1057</ele>
        <time>2021-01-19T08:50:01Z</time>
      </trkpt>
      <trkpt lat="45.993296" lon="13.898931">
        <ele>1057</ele>
        <time>2021-01-19T08:51:24Z</time>
      </trkpt>
      <trkpt lat="45.993103" lon="13.899117">
        <ele>1062</ele>
        <time>2021-01-19T08:51:25Z</time>
      </trkpt>
      <trkpt lat="45.993027" lon="13.899188">
        <ele>1063</ele>
        <time>2021-01-19T08:51:38Z</time>
      </trkpt>
      <trkpt lat="45.992956" lon="13.899221">
        <ele>1067</ele>
        <time>2021-01-19T08:52:20Z</time>
      </trkpt>
      <trkpt lat="45.992956" lon="13.899221">
        <ele>1067</ele>
        <time>2021-01-19T08:54:03Z</time>
      </trkpt>
      <trkpt lat="45.992752" lon="13.89939">
        <ele>1069</ele>
        <time>2021-01-19T08:54:04Z</time>
      </trkpt>
      <trkpt lat="45.992664" lon="13.899491">
        <ele>1069</ele>
        <time>2021-01-19T08:54:08Z</time>
      </trkpt>
      <trkpt lat="45.992567" lon="13.899559">
        <ele>1072</ele>
        <time>2021-01-19T08:54:32Z</time>
      </trkpt>
      <trkpt lat="45.992495" lon="13.899601">
        <ele>1074</ele>
        <time>2021-01-19T08:55:00Z</time>
      </trkpt>
      <trkpt lat="45.992495" lon="13.899601">
        <ele>1074</ele>
        <time>2021-01-19T08:56:09Z</time>
      </trkpt>
      <trkpt lat="45.992079" lon="13.89976">
        <ele>1077</ele>
        <time>2021-01-19T08:56:10Z</time>
      </trkpt>
      <trkpt lat="45.99198" lon="13.899805">
        <ele>1078</ele>
        <time>2021-01-19T08:56:21Z</time>
      </trkpt>
      <trkpt lat="45.991925" lon="13.899833">
        <ele>1083</ele>
        <time>2021-01-19T08:56:48Z</time>
      </trkpt>
      <trkpt lat="45.991925" lon="13.899833">
        <ele>1083</ele>
        <time>2021-01-19T08:57:05Z</time>
      </trkpt>
      <trkpt lat="45.991866" lon="13.899516">
        <ele>1086</ele>
        <time>2021-01-19T08:57:06Z</time>
      </trkpt>
      <trkpt lat="45.991864" lon="13.899509">
        <ele>1090</ele>
        <time>2021-01-19T08:57:28Z</time>
      </trkpt>
      <trkpt lat="45.991864" lon="13.899509">
        <ele>1090</ele>
        <time>2021-01-19T08:58:20Z</time>
      </trkpt>
      <trkpt lat="45.991666" lon="13.89927">
        <ele>1094</ele>
        <time>2021-01-19T08:58:21Z</time>
      </trkpt>
      <trkpt lat="45.991641" lon="13.899241">
        <ele>1094</ele>
        <time>2021-01-19T08:58:46Z</time>
      </trkpt>
      <trkpt lat="45.991641" lon="13.899241">
        <ele>1094</ele>
        <time>2021-01-19T08:59:18Z</time>
      </trkpt>
      <trkpt lat="45.991481" lon="13.898926">
        <ele>1094</ele>
        <time>2021-01-19T08:59:19Z</time>
      </trkpt>
      <trkpt lat="45.991465" lon="13.89889">
        <ele>1094</ele>
        <time>2021-01-19T08:59:45Z</time>
      </trkpt>
      <trkpt lat="45.991465" lon="13.89889">
        <ele>1094</ele>
        <time>2021-01-19T09:00:35Z</time>
      </trkpt>
      <trkpt lat="45.991078" lon="13.898558">
        <ele>1095</ele>
        <time>2021-01-19T09:00:36Z</time>
      </trkpt>
      <trkpt lat="45.990996" lon="13.898487">
        <ele>1095</ele>
        <time>2021-01-19T09:00:38Z</time>
      </trkpt>
      <trkpt lat="45.990984" lon="13.898476">
        <ele>1096</ele>
        <time>2021-01-19T09:01:02Z</time>
      </trkpt>
      <trkpt lat="45.990984" lon="13.898476">
        <ele>1096</ele>
        <time>2021-01-19T09:01:55Z</time>
      </trkpt>
      <trkpt lat="45.990673" lon="13.898309">
        <ele>1097</ele>
        <time>2021-01-19T09:01:56Z</time>
      </trkpt>
      <trkpt lat="45.990635" lon="13.898285">
        <ele>1102</ele>
        <time>2021-01-19T09:02:22Z</time>
      </trkpt>
      <trkpt lat="45.990635" lon="13.898285">
        <ele>1102</ele>
        <time>2021-01-19T09:03:09Z</time>
      </trkpt>
      <trkpt lat="45.990385" lon="13.898154">
        <ele>1106</ele>
        <time>2021-01-19T09:03:10Z</time>
      </trkpt>
      <trkpt lat="45.990352" lon="13.898139">
        <ele>1106</ele>
        <time>2021-01-19T09:03:36Z</time>
      </trkpt>
      <trkpt lat="45.990352" lon="13.898139">
        <ele>1106</ele>
        <time>2021-01-19T09:03:38Z</time>
      </trkpt>
      <trkpt lat="45.990071" lon="13.897936">
        <ele>1107</ele>
        <time>2021-01-19T09:03:39Z</time>
      </trkpt>
      <trkpt lat="45.98997" lon="13.897877">
        <ele>1108</ele>
        <time>2021-01-19T09:03:47Z</time>
      </trkpt>
      <trkpt lat="45.989876" lon="13.897825">
        <ele>1108</ele>
        <time>2021-01-19T09:03:50Z</time>
      </trkpt>
      <trkpt lat="45.989779" lon="13.897776">
        <ele>1109</ele>
        <time>2021-01-19T09:03:53Z</time>
      </trkpt>
      <trkpt lat="45.989691" lon="13.897733">
        <ele>1110</ele>
        <time>2021-01-19T09:03:57Z</time>
      </trkpt>
      <trkpt lat="45.989687" lon="13.89773">
        <ele>1117</ele>
        <time>2021-01-19T09:04:22Z</time>
      </trkpt>
      <trkpt lat="45.989687" lon="13.89773">
        <ele>1117</ele>
        <time>2021-01-19T09:07:00Z</time>
      </trkpt>
      <trkpt lat="45.990134" lon="13.897742">
        <ele>1129</ele>
        <time>2021-01-19T09:07:01Z</time>
      </trkpt>
      <trkpt lat="45.990301" lon="13.897671">
        <ele>1129</ele>
        <time>2021-01-19T09:07:22Z</time>
      </trkpt>
      <trkpt lat="45.990417" lon="13.897619">
        <ele>1129</ele>
        <time>2021-01-19T09:07:24Z</time>
      </trkpt>
      <trkpt lat="45.990442" lon="13.897609">
        <ele>1131</ele>
        <time>2021-01-19T09:07:49Z</time>
      </trkpt>
      <trkpt lat="45.990442" lon="13.897609">
        <ele>1131</ele>
        <time>2021-01-19T09:08:33Z</time>
      </trkpt>
      <trkpt lat="45.990613" lon="13.897363">
        <ele>1133</ele>
        <time>2021-01-19T09:08:34Z</time>
      </trkpt>
      <trkpt lat="45.99062" lon="13.897347">
        <ele>1134</ele>
        <time>2021-01-19T09:08:59Z</time>
      </trkpt>
      <trkpt lat="45.99062" lon="13.897347">
        <ele>1134</ele>
        <time>2021-01-19T09:10:45Z</time>
      </trkpt>
      <trkpt lat="45.990575" lon="13.896961">
        <ele>1136</ele>
        <time>2021-01-19T09:10:46Z</time>
      </trkpt>
      <trkpt lat="45.990573" lon="13.896909">
        <ele>1137</ele>
        <time>2021-01-19T09:11:12Z</time>
      </trkpt>
      <trkpt lat="45.990573" lon="13.896909">
        <ele>1137</ele>
        <time>2021-01-19T09:11:45Z</time>
      </trkpt>
      <trkpt lat="45.990596" lon="13.89656">
        <ele>1138</ele>
        <time>2021-01-19T09:11:46Z</time>
      </trkpt>
      <trkpt lat="45.990577" lon="13.896432">
        <ele>1138</ele>
        <time>2021-01-19T09:11:49Z</time>
      </trkpt>
      <trkpt lat="45.990567" lon="13.896301">
        <ele>1138</ele>
        <time>2021-01-19T09:11:56Z</time>
      </trkpt>
      <trkpt lat="45.99054" lon="13.896175">
        <ele>1138</ele>
        <time>2021-01-19T09:11:59Z</time>
      </trkpt>
      <trkpt lat="45.990495" lon="13.896049">
        <ele>1140</ele>
        <time>2021-01-19T09:12:18Z</time>
      </trkpt>
      <trkpt lat="45.990465" lon="13.895906">
        <ele>1142</ele>
        <time>2021-01-19T09:12:31Z</time>
      </trkpt>
      <trkpt lat="45.990424" lon="13.895769">
        <ele>1144</ele>
        <time>2021-01-19T09:12:46Z</time>
      </trkpt>
      <trkpt lat="45.990327" lon="13.895703">
        <ele>1146</ele>
        <time>2021-01-19T09:12:54Z</time>
      </trkpt>
      <trkpt lat="45.990227" lon="13.895656">
        <ele>1147</ele>
        <time>2021-01-19T09:12:59Z</time>
      </trkpt>
      <trkpt lat="45.990163" lon="13.895626">
        <ele>1157</ele>
        <time>2021-01-19T09:13:28Z</time>
      </trkpt>
      <trkpt lat="45.990163" lon="13.895626">
        <ele>1157</ele>
        <time>2021-01-19T09:14:32Z</time>
      </trkpt>
      <trkpt lat="45.989942" lon="13.895528">
        <ele>1162</ele>
        <time>2021-01-19T09:14:33Z</time>
      </trkpt>
      <trkpt lat="45.989873" lon="13.895512">
        <ele>1163</ele>
        <time>2021-01-19T09:15:04Z</time>
      </trkpt>
      <trkpt lat="45.989873" lon="13.895512">
        <ele>1163</ele>
        <time>2021-01-19T09:16:21Z</time>
      </trkpt>
      <trkpt lat="45.989652" lon="13.895254">
        <ele>1168</ele>
        <time>2021-01-19T09:16:22Z</time>
      </trkpt>
      <trkpt lat="45.989569" lon="13.89516">
        <ele>1169</ele>
        <time>2021-01-19T09:16:41Z</time>
      </trkpt>
      <trkpt lat="45.989496" lon="13.895075">
        <ele>1169</ele>
        <time>2021-01-19T09:16:43Z</time>
      </trkpt>
      <trkpt lat="45.989418" lon="13.894984">
        <ele>1169</ele>
        <time>2021-01-19T09:16:48Z</time>
      </trkpt>
      <trkpt lat="45.989379" lon="13.89486">
        <ele>1172</ele>
        <time>2021-01-19T09:17:04Z</time>
      </trkpt>
      <trkpt lat="45.989334" lon="13.894732">
        <ele>1173</ele>
        <time>2021-01-19T09:17:12Z</time>
      </trkpt>
      <trkpt lat="45.989297" lon="13.894611">
        <ele>1176</ele>
        <time>2021-01-19T09:17:23Z</time>
      </trkpt>
      <trkpt lat="45.989284" lon="13.894477">
        <ele>1180</ele>
        <time>2021-01-19T09:17:41Z</time>
      </trkpt>
      <trkpt lat="45.989258" lon="13.894429">
        <ele>1184</ele>
        <time>2021-01-19T09:18:07Z</time>
      </trkpt>
      <trkpt lat="45.989258" lon="13.894429">
        <ele>1184</ele>
        <time>2021-01-19T09:19:40Z</time>
      </trkpt>
      <trkpt lat="45.98902" lon="13.894229">
        <ele>1185</ele>
        <time>2021-01-19T09:19:41Z</time>
      </trkpt>
      <trkpt lat="45.989014" lon="13.894228">
        <ele>1184</ele>
        <time>2021-01-19T09:20:04Z</time>
      </trkpt>
      <trkpt lat="45.989014" lon="13.894228">
        <ele>1184</ele>
        <time>2021-01-19T09:21:15Z</time>
      </trkpt>
      <trkpt lat="45.988762" lon="13.89385">
        <ele>1184</ele>
        <time>2021-01-19T09:21:16Z</time>
      </trkpt>
      <trkpt lat="45.988734" lon="13.893803">
        <ele>1184</ele>
        <time>2021-01-19T09:22:03Z</time>
      </trkpt>
      <trkpt lat="45.988734" lon="13.893803">
        <ele>1184</ele>
        <time>2021-01-19T09:22:44Z</time>
      </trkpt>
      <trkpt lat="45.988569" lon="13.893392">
        <ele>1184</ele>
        <time>2021-01-19T09:22:45Z</time>
      </trkpt>
      <trkpt lat="45.988551" lon="13.893345">
        <ele>1186</ele>
        <time>2021-01-19T09:23:20Z</time>
      </trkpt>
      <trkpt lat="45.988551" lon="13.893345">
        <ele>1186</ele>
        <time>2021-01-19T09:23:23Z</time>
      </trkpt>
      <trkpt lat="45.98849" lon="13.89302">
        <ele>1186</ele>
        <time>2021-01-19T09:23:24Z</time>
      </trkpt>
      <trkpt lat="45.988453" lon="13.892852">
        <ele>1190</ele>
        <time>2021-01-19T09:23:51Z</time>
      </trkpt>
      <trkpt lat="45.988453" lon="13.892852">
        <ele>1190</ele>
        <time>2021-01-19T09:24:46Z</time>
      </trkpt>
      <trkpt lat="45.988426" lon="13.892467">
        <ele>1200</ele>
        <time>2021-01-19T09:24:47Z</time>
      </trkpt>
      <trkpt lat="45.988427" lon="13.892459">
        <ele>1203</ele>
        <time>2021-01-19T09:25:11Z</time>
      </trkpt>
      <trkpt lat="45.988427" lon="13.892459">
        <ele>1203</ele>
        <time>2021-01-19T09:25:29Z</time>
      </trkpt>
      <trkpt lat="45.988367" lon="13.892058">
        <ele>1204</ele>
        <time>2021-01-19T09:25:30Z</time>
      </trkpt>
      <trkpt lat="45.988359" lon="13.892008">
        <ele>1207</ele>
        <time>2021-01-19T09:25:57Z</time>
      </trkpt>
      <trkpt lat="45.988359" lon="13.892008">
        <ele>1207</ele>
        <time>2021-01-19T09:26:59Z</time>
      </trkpt>
      <trkpt lat="45.988207" lon="13.891648">
        <ele>1209</ele>
        <time>2021-01-19T09:27:00Z</time>
      </trkpt>
      <trkpt lat="45.988169" lon="13.891519">
        <ele>1209</ele>
        <time>2021-01-19T09:27:03Z</time>
      </trkpt>
      <trkpt lat="45.988167" lon="13.891512">
        <ele>1210</ele>
        <time>2021-01-19T09:27:28Z</time>
      </trkpt>
      <trkpt lat="45.988167" lon="13.891512">
        <ele>1210</ele>
        <time>2021-01-19T09:27:35Z</time>
      </trkpt>
      <trkpt lat="45.988125" lon="13.891166">
        <ele>1210</ele>
        <time>2021-01-19T09:27:36Z</time>
      </trkpt>
      <trkpt lat="45.988117" lon="13.891103">
        <ele>1213</ele>
        <time>2021-01-19T09:28:02Z</time>
      </trkpt>
      <trkpt lat="45.988117" lon="13.891103">
        <ele>1213</ele>
        <time>2021-01-19T09:28:34Z</time>
      </trkpt>
      <trkpt lat="45.988015" lon="13.890725">
        <ele>1216</ele>
        <time>2021-01-19T09:28:35Z</time>
      </trkpt>
      <trkpt lat="45.987983" lon="13.890651">
        <ele>1221</ele>
        <time>2021-01-19T09:29:02Z</time>
      </trkpt>
      <trkpt lat="45.987983" lon="13.890651">
        <ele>1221</ele>
        <time>2021-01-19T09:30:55Z</time>
      </trkpt>
      <trkpt lat="45.987871" lon="13.889853">
        <ele>1228</ele>
        <time>2021-01-19T09:30:56Z</time>
      </trkpt>
      <trkpt lat="45.987868" lon="13.889763">
        <ele>1233</ele>
        <time>2021-01-19T09:31:27Z</time>
      </trkpt>
      <trkpt lat="45.987868" lon="13.889763">
        <ele>1233</ele>
        <time>2021-01-19T09:33:34Z</time>
      </trkpt>
      <trkpt lat="45.987775" lon="13.889324">
        <ele>1240</ele>
        <time>2021-01-19T09:33:35Z</time>
      </trkpt>
      <trkpt lat="45.987772" lon="13.889264">
        <ele>1241</ele>
        <time>2021-01-19T09:34:00Z</time>
      </trkpt>
      <trkpt lat="45.987772" lon="13.889264">
        <ele>1241</ele>
        <time>2021-01-19T09:34:16Z</time>
      </trkpt>
      <trkpt lat="45.987735" lon="13.88894">
        <ele>1242</ele>
        <time>2021-01-19T09:34:17Z</time>
      </trkpt>
      <trkpt lat="45.987724" lon="13.888804">
        <ele>1242</ele>
        <time>2021-01-19T09:34:23Z</time>
      </trkpt>
      <trkpt lat="45.987745" lon="13.888645">
        <ele>1242</ele>
        <time>2021-01-19T09:34:29Z</time>
      </trkpt>
      <trkpt lat="45.987759" lon="13.888516">
        <ele>1246</ele>
        <time>2021-01-19T09:34:46Z</time>
      </trkpt>
      <trkpt lat="45.98776" lon="13.888514">
        <ele>1252</ele>
        <time>2021-01-19T09:35:08Z</time>
      </trkpt>
      <trkpt lat="45.98776" lon="13.888514">
        <ele>1252</ele>
        <time>2021-01-19T09:38:07Z</time>
      </trkpt>
      <trkpt lat="45.987342" lon="13.887701">
        <ele>1255</ele>
        <time>2021-01-19T09:38:08Z</time>
      </trkpt>
      <trkpt lat="45.987287" lon="13.887618">
        <ele>1257</ele>
        <time>2021-01-19T09:38:36Z</time>
      </trkpt>
      <trkpt lat="45.987287" lon="13.887618">
        <ele>1257</ele>
        <time>2021-01-19T09:38:55Z</time>
      </trkpt>
      <trkpt lat="45.987073" lon="13.887507">
        <ele>1257</ele>
        <time>2021-01-19T09:38:56Z</time>
      </trkpt>
      <trkpt lat="45.98707" lon="13.887505">
        <ele>1256</ele>
        <time>2021-01-19T09:39:19Z</time>
      </trkpt>
      <trkpt lat="45.98707" lon="13.887505">
        <ele>1256</ele>
        <time>2021-01-19T09:39:37Z</time>
      </trkpt>
      <trkpt lat="45.986831" lon="13.887474">
        <ele>1256</ele>
        <time>2021-01-19T09:39:38Z</time>
      </trkpt>
      <trkpt lat="45.986787" lon="13.88746">
        <ele>1259</ele>
        <time>2021-01-19T09:40:04Z</time>
      </trkpt>
      <trkpt lat="45.986787" lon="13.88746">
        <ele>1259</ele>
        <time>2021-01-19T09:40:13Z</time>
      </trkpt>
      <trkpt lat="45.986544" lon="13.8874">
        <ele>1260</ele>
        <time>2021-01-19T09:40:14Z</time>
      </trkpt>
      <trkpt lat="45.986517" lon="13.887392">
        <ele>1262</ele>
        <time>2021-01-19T09:40:40Z</time>
      </trkpt>
      <trkpt lat="45.986517" lon="13.887392">
        <ele>1262</ele>
        <time>2021-01-19T09:41:36Z</time>
      </trkpt>
      <trkpt lat="45.986267" lon="13.887399">
        <ele>1263</ele>
        <time>2021-01-19T09:41:37Z</time>
      </trkpt>
      <trkpt lat="45.986163" lon="13.887438">
        <ele>1263</ele>
        <time>2021-01-19T09:41:41Z</time>
      </trkpt>
      <trkpt lat="45.986123" lon="13.88745">
        <ele>1263</ele>
        <time>2021-01-19T09:42:08Z</time>
      </trkpt>
      <trkpt lat="45.986123" lon="13.88745">
        <ele>1263</ele>
        <time>2021-01-19T09:42:21Z</time>
      </trkpt>
      <trkpt lat="45.985899" lon="13.887525">
        <ele>1263</ele>
        <time>2021-01-19T09:42:22Z</time>
      </trkpt>
      <trkpt lat="45.985797" lon="13.887568">
        <ele>1264</ele>
        <time>2021-01-19T09:42:30Z</time>
      </trkpt>
      <trkpt lat="45.9857" lon="13.887595">
        <ele>1264</ele>
        <time>2021-01-19T09:42:33Z</time>
      </trkpt>
      <trkpt lat="45.98561" lon="13.887649">
        <ele>1265</ele>
        <time>2021-01-19T09:42:46Z</time>
      </trkpt>
      <trkpt lat="45.985513" lon="13.887672">
        <ele>1267</ele>
        <time>2021-01-19T09:42:54Z</time>
      </trkpt>
      <trkpt lat="45.985438" lon="13.887742">
        <ele>1268</ele>
        <time>2021-01-19T09:43:04Z</time>
      </trkpt>
      <trkpt lat="45.985362" lon="13.887819">
        <ele>1271</ele>
        <time>2021-01-19T09:43:24Z</time>
      </trkpt>
      <trkpt lat="45.985284" lon="13.887886">
        <ele>1272</ele>
        <time>2021-01-19T09:43:38Z</time>
      </trkpt>
      <trkpt lat="45.985276" lon="13.887892">
        <ele>1275</ele>
        <time>2021-01-19T09:44:02Z</time>
      </trkpt>
      <trkpt lat="45.985276" lon="13.887892">
        <ele>1275</ele>
        <time>2021-01-19T09:44:21Z</time>
      </trkpt>
      <trkpt lat="45.985052" lon="13.887995">
        <ele>1276</ele>
        <time>2021-01-19T09:44:22Z</time>
      </trkpt>
      <trkpt lat="45.984963" lon="13.88807">
        <ele>1277</ele>
        <time>2021-01-19T09:44:39Z</time>
      </trkpt>
      <trkpt lat="45.984879" lon="13.888153">
        <ele>1277</ele>
        <time>2021-01-19T09:44:47Z</time>
      </trkpt>
      <trkpt lat="45.984765" lon="13.88817">
        <ele>1279</ele>
        <time>2021-01-19T09:45:00Z</time>
      </trkpt>
      <trkpt lat="45.984726" lon="13.888166">
        <ele>1284</ele>
        <time>2021-01-19T09:45:26Z</time>
      </trkpt>
      <trkpt lat="45.984726" lon="13.888166">
        <ele>1284</ele>
        <time>2021-01-19T09:45:37Z</time>
      </trkpt>
      <trkpt lat="45.984474" lon="13.888149">
        <ele>1285</ele>
        <time>2021-01-19T09:45:38Z</time>
      </trkpt>
      <trkpt lat="45.98438" lon="13.888154">
        <ele>1285</ele>
        <time>2021-01-19T09:45:41Z</time>
      </trkpt>
      <trkpt lat="45.984311" lon="13.888137">
        <ele>1283</ele>
        <time>2021-01-19T09:46:06Z</time>
      </trkpt>
      <trkpt lat="45.984311" lon="13.888137">
        <ele>1283</ele>
        <time>2021-01-19T09:46:24Z</time>
      </trkpt>
      <trkpt lat="45.984081" lon="13.888045">
        <ele>1282</ele>
        <time>2021-01-19T09:46:25Z</time>
      </trkpt>
      <trkpt lat="45.984064" lon="13.888038">
        <ele>1284</ele>
        <time>2021-01-19T09:46:50Z</time>
      </trkpt>
      <trkpt lat="45.984064" lon="13.888038">
        <ele>1284</ele>
        <time>2021-01-19T09:48:30Z</time>
      </trkpt>
      <trkpt lat="45.983789" lon="13.887698">
        <ele>1285</ele>
        <time>2021-01-19T09:48:31Z</time>
      </trkpt>
      <trkpt lat="45.983754" lon="13.887657">
        <ele>1285</ele>
        <time>2021-01-19T09:48:57Z</time>
      </trkpt>
      <trkpt lat="45.983754" lon="13.887657">
        <ele>1285</ele>
        <time>2021-01-19T09:49:17Z</time>
      </trkpt>
      <trkpt lat="45.983536" lon="13.887409">
        <ele>1285</ele>
        <time>2021-01-19T09:49:18Z</time>
      </trkpt>
      <trkpt lat="45.983433" lon="13.887303">
        <ele>1285</ele>
        <time>2021-01-19T09:49:40Z</time>
      </trkpt>
      <trkpt lat="45.983332" lon="13.887203">
        <ele>1285</ele>
        <time>2021-01-19T09:49:41Z</time>
      </trkpt>
      <trkpt lat="45.983262" lon="13.887124">
        <ele>1284</ele>
        <time>2021-01-19T09:50:08Z</time>
      </trkpt>
      <trkpt lat="45.983262" lon="13.887124">
        <ele>1284</ele>
        <time>2021-01-19T09:50:43Z</time>
      </trkpt>
      <trkpt lat="45.983029" lon="13.88697">
        <ele>1285</ele>
        <time>2021-01-19T09:50:44Z</time>
      </trkpt>
      <trkpt lat="45.983004" lon="13.886953">
        <ele>1285</ele>
        <time>2021-01-19T09:51:10Z</time>
      </trkpt>
      <trkpt lat="45.983004" lon="13.886953">
        <ele>1285</ele>
        <time>2021-01-19T09:51:57Z</time>
      </trkpt>
      <trkpt lat="45.982795" lon="13.886765">
        <ele>1286</ele>
        <time>2021-01-19T09:51:58Z</time>
      </trkpt>
      <trkpt lat="45.982719" lon="13.886687">
        <ele>1286</ele>
        <time>2021-01-19T09:52:00Z</time>
      </trkpt>
      <trkpt lat="45.982706" lon="13.886675">
        <ele>1285</ele>
        <time>2021-01-19T09:52:24Z</time>
      </trkpt>
      <trkpt lat="45.982706" lon="13.886675">
        <ele>1285</ele>
        <time>2021-01-19T09:52:50Z</time>
      </trkpt>
      <trkpt lat="45.982451" lon="13.886512">
        <ele>1284</ele>
        <time>2021-01-19T09:52:51Z</time>
      </trkpt>
      <trkpt lat="45.982368" lon="13.886448">
        <ele>1285</ele>
        <time>2021-01-19T09:53:02Z</time>
      </trkpt>
      <trkpt lat="45.982376" lon="13.886457">
        <ele>1286</ele>
        <time>2021-01-19T09:53:17Z</time>
      </trkpt>
      <trkpt lat="45.982376" lon="13.886457">
        <ele>1286</ele>
        <time>2021-01-19T09:54:26Z</time>
      </trkpt>
      <trkpt lat="45.982093" lon="13.886365">
        <ele>1288</ele>
        <time>2021-01-19T09:54:27Z</time>
      </trkpt>
      <trkpt lat="45.981957" lon="13.886312">
        <ele>1288</ele>
        <time>2021-01-19T09:54:29Z</time>
      </trkpt>
      <trkpt lat="45.981871" lon="13.886255">
        <ele>1287</ele>
        <time>2021-01-19T09:54:43Z</time>
      </trkpt>
      <trkpt lat="45.981855" lon="13.886241">
        <ele>1287</ele>
        <time>2021-01-19T09:55:17Z</time>
      </trkpt>
      <trkpt lat="45.981855" lon="13.886241">
        <ele>1287</ele>
        <time>2021-01-19T09:56:10Z</time>
      </trkpt>
      <trkpt lat="45.981566" lon="13.885883">
        <ele>1288</ele>
        <time>2021-01-19T09:56:11Z</time>
      </trkpt>
      <trkpt lat="45.981465" lon="13.885797">
        <ele>1288</ele>
        <time>2021-01-19T09:56:27Z</time>
      </trkpt>
      <trkpt lat="45.981368" lon="13.885707">
        <ele>1288</ele>
        <time>2021-01-19T09:56:42Z</time>
      </trkpt>
      <trkpt lat="45.98135" lon="13.885687">
        <ele>1288</ele>
        <time>2021-01-19T09:57:08Z</time>
      </trkpt>
      <trkpt lat="45.98135" lon="13.885687">
        <ele>1288</ele>
        <time>2021-01-19T09:57:35Z</time>
      </trkpt>
      <trkpt lat="45.981014" lon="13.885435">
        <ele>1288</ele>
        <time>2021-01-19T09:57:36Z</time>
      </trkpt>
      <trkpt lat="45.980921" lon="13.885365">
        <ele>1288</ele>
        <time>2021-01-19T09:57:38Z</time>
      </trkpt>
      <trkpt lat="45.980906" lon="13.885354">
        <ele>1287</ele>
        <time>2021-01-19T09:58:06Z</time>
      </trkpt>
      <trkpt lat="45.980906" lon="13.885354">
        <ele>1287</ele>
        <time>2021-01-19T09:58:53Z</time>
      </trkpt>
      <trkpt lat="45.980543" lon="13.885347">
        <ele>1286</ele>
        <time>2021-01-19T09:58:54Z</time>
      </trkpt>
      <trkpt lat="45.980512" lon="13.885344">
        <ele>1287</ele>
        <time>2021-01-19T09:59:20Z</time>
      </trkpt>
      <trkpt lat="45.980512" lon="13.885344">
        <ele>1287</ele>
        <time>2021-01-19T10:00:50Z</time>
      </trkpt>
      <trkpt lat="45.980215" lon="13.885329">
        <ele>1287</ele>
        <time>2021-01-19T10:00:51Z</time>
      </trkpt>
      <trkpt lat="45.980179" lon="13.88533">
        <ele>1288</ele>
        <time>2021-01-19T10:01:18Z</time>
      </trkpt>
      <trkpt lat="45.980179" lon="13.88533">
        <ele>1288</ele>
        <time>2021-01-19T10:03:11Z</time>
      </trkpt>
      <trkpt lat="45.97992" lon="13.885271">
        <ele>1292</ele>
        <time>2021-01-19T10:03:12Z</time>
      </trkpt>
      <trkpt lat="45.979915" lon="13.885269">
        <ele>1292</ele>
        <time>2021-01-19T10:03:37Z</time>
      </trkpt>
      <trkpt lat="45.979915" lon="13.885269">
        <ele>1292</ele>
        <time>2021-01-19T10:08:26Z</time>
      </trkpt>
      <trkpt lat="45.979666" lon="13.885214">
        <ele>1293</ele>
        <time>2021-01-19T10:08:27Z</time>
      </trkpt>
      <trkpt lat="45.979653" lon="13.885215">
        <ele>1293</ele>
        <time>2021-01-19T10:08:52Z</time>
      </trkpt>
      <trkpt lat="45.979653" lon="13.885215">
        <ele>1293</ele>
        <time>2021-01-19T10:11:35Z</time>
      </trkpt>
      <trkpt lat="45.979025" lon="13.885343">
        <ele>1296</ele>
        <time>2021-01-19T10:11:36Z</time>
      </trkpt>
      <trkpt lat="45.978931" lon="13.885386">
        <ele>1296</ele>
        <time>2021-01-19T10:11:38Z</time>
      </trkpt>
      <trkpt lat="45.978917" lon="13.885393">
        <ele>1300</ele>
        <time>2021-01-19T10:12:03Z</time>
      </trkpt>
      <trkpt lat="45.978917" lon="13.885393">
        <ele>1300</ele>
        <time>2021-01-19T10:14:50Z</time>
      </trkpt>
      <trkpt lat="45.978547" lon="13.885276">
        <ele>1312</ele>
        <time>2021-01-19T10:14:51Z</time>
      </trkpt>
      <trkpt lat="45.978514" lon="13.885268">
        <ele>1314</ele>
        <time>2021-01-19T10:15:17Z</time>
      </trkpt>
      <trkpt lat="45.978514" lon="13.885268">
        <ele>1314</ele>
        <time>2021-01-19T10:18:54Z</time>
      </trkpt>
      <trkpt lat="45.977971" lon="13.885569">
        <ele>1316</ele>
        <time>2021-01-19T10:18:55Z</time>
      </trkpt>
      <trkpt lat="45.977757" lon="13.885583">
        <ele>1321</ele>
        <time>2021-01-19T10:19:38Z</time>
      </trkpt>
      <trkpt lat="45.977652" lon="13.885563">
        <ele>1321</ele>
        <time>2021-01-19T10:19:39Z</time>
      </trkpt>
      <trkpt lat="45.977538" lon="13.885517">
        <ele>1321</ele>
        <time>2021-01-19T10:19:41Z</time>
      </trkpt>
      <trkpt lat="45.977448" lon="13.885508">
        <ele>1322</ele>
        <time>2021-01-19T10:19:45Z</time>
      </trkpt>
      <trkpt lat="45.97744" lon="13.885512">
        <ele>1327</ele>
        <time>2021-01-19T10:20:10Z</time>
      </trkpt>
      <trkpt lat="45.97744" lon="13.885512">
        <ele>1327</ele>
        <time>2021-01-19T10:20:42Z</time>
      </trkpt>
      <trkpt lat="45.97721" lon="13.885465">
        <ele>1330</ele>
        <time>2021-01-19T10:20:43Z</time>
      </trkpt>
      <trkpt lat="45.97718" lon="13.885462">
        <ele>1333</ele>
        <time>2021-01-19T10:21:09Z</time>
      </trkpt>
      <trkpt lat="45.97718" lon="13.885462">
        <ele>1333</ele>
        <time>2021-01-19T10:21:27Z</time>
      </trkpt>
      <trkpt lat="45.976896" lon="13.885429">
        <ele>1335</ele>
        <time>2021-01-19T10:21:28Z</time>
      </trkpt>
      <trkpt lat="45.976866" lon="13.885421">
        <ele>1340</ele>
        <time>2021-01-19T10:21:55Z</time>
      </trkpt>
      <trkpt lat="45.976866" lon="13.885421">
        <ele>1340</ele>
        <time>2021-01-19T10:22:46Z</time>
      </trkpt>
      <trkpt lat="45.976645" lon="13.885496">
        <ele>1346</ele>
        <time>2021-01-19T10:22:47Z</time>
      </trkpt>
      <trkpt lat="45.976638" lon="13.8855">
        <ele>1347</ele>
        <time>2021-01-19T10:23:12Z</time>
      </trkpt>
      <trkpt lat="45.976638" lon="13.8855">
        <ele>1347</ele>
        <time>2021-01-19T10:23:38Z</time>
      </trkpt>
      <trkpt lat="45.976416" lon="13.885584">
        <ele>1349</ele>
        <time>2021-01-19T10:23:39Z</time>
      </trkpt>
      <trkpt lat="45.976315" lon="13.885602">
        <ele>1349</ele>
        <time>2021-01-19T10:23:40Z</time>
      </trkpt>
      <trkpt lat="45.976189" lon="13.885639">
        <ele>1349</ele>
        <time>2021-01-19T10:23:41Z</time>
      </trkpt>
      <trkpt lat="45.9761" lon="13.885687">
        <ele>1349</ele>
        <time>2021-01-19T10:23:44Z</time>
      </trkpt>
      <trkpt lat="45.976095" lon="13.885689">
        <ele>1353</ele>
        <time>2021-01-19T10:24:09Z</time>
      </trkpt>
      <trkpt lat="45.976095" lon="13.885689">
        <ele>1353</ele>
        <time>2021-01-19T10:25:35Z</time>
      </trkpt>
      <trkpt lat="45.97585" lon="13.885878">
        <ele>1355</ele>
        <time>2021-01-19T10:25:36Z</time>
      </trkpt>
      <trkpt lat="45.97581" lon="13.885905">
        <ele>1359</ele>
        <time>2021-01-19T10:26:02Z</time>
      </trkpt>
      <trkpt lat="45.97581" lon="13.885905">
        <ele>1359</ele>
        <time>2021-01-19T10:26:57Z</time>
      </trkpt>
      <trkpt lat="45.975551" lon="13.885985">
        <ele>1366</ele>
        <time>2021-01-19T10:26:58Z</time>
      </trkpt>
      <trkpt lat="45.975527" lon="13.885995">
        <ele>1368</ele>
        <time>2021-01-19T10:27:23Z</time>
      </trkpt>
      <trkpt lat="45.975527" lon="13.885995">
        <ele>1368</ele>
        <time>2021-01-19T10:27:41Z</time>
      </trkpt>
      <trkpt lat="45.975251" lon="13.886145">
        <ele>1370</ele>
        <time>2021-01-19T10:27:42Z</time>
      </trkpt>
      <trkpt lat="45.975173" lon="13.886216">
        <ele>1370</ele>
        <time>2021-01-19T10:28:05Z</time>
      </trkpt>
      <trkpt lat="45.975105" lon="13.886306">
        <ele>1371</ele>
        <time>2021-01-19T10:28:27Z</time>
      </trkpt>
      <trkpt lat="45.975095" lon="13.886322">
        <ele>1372</ele>
        <time>2021-01-19T10:28:53Z</time>
      </trkpt>
      <trkpt lat="45.975095" lon="13.886322">
        <ele>1372</ele>
        <time>2021-01-19T10:30:38Z</time>
      </trkpt>
      <trkpt lat="45.974781" lon="13.886524">
        <ele>1373</ele>
        <time>2021-01-19T10:30:39Z</time>
      </trkpt>
      <trkpt lat="45.974675" lon="13.886605">
        <ele>1373</ele>
        <time>2021-01-19T10:30:41Z</time>
      </trkpt>
      <trkpt lat="45.974655" lon="13.886619">
        <ele>1373</ele>
        <time>2021-01-19T10:31:06Z</time>
      </trkpt>
      <trkpt lat="45.974655" lon="13.886619">
        <ele>1373</ele>
        <time>2021-01-19T10:33:31Z</time>
      </trkpt>
      <trkpt lat="45.974681" lon="13.886295">
        <ele>1377</ele>
        <time>2021-01-19T10:33:32Z</time>
      </trkpt>
      <trkpt lat="45.974711" lon="13.886165">
        <ele>1379</ele>
        <time>2021-01-19T10:33:51Z</time>
      </trkpt>
      <trkpt lat="45.974762" lon="13.886046">
        <ele>1379</ele>
        <time>2021-01-19T10:33:56Z</time>
      </trkpt>
      <trkpt lat="45.974781" lon="13.885992">
        <ele>1383</ele>
        <time>2021-01-19T10:34:22Z</time>
      </trkpt>
      <trkpt lat="45.974781" lon="13.885992">
        <ele>1383</ele>
        <time>2021-01-19T10:35:07Z</time>
      </trkpt>
      <trkpt lat="45.97467" lon="13.885704">
        <ele>1384</ele>
        <time>2021-01-19T10:35:08Z</time>
      </trkpt>
      <trkpt lat="45.974655" lon="13.88567">
        <ele>1390</ele>
        <time>2021-01-19T10:35:34Z</time>
      </trkpt>
      <trkpt lat="45.974655" lon="13.88567">
        <ele>1390</ele>
        <time>2021-01-19T10:40:07Z</time>
      </trkpt>
      <trkpt lat="45.974517" lon="13.885219">
        <ele>1397</ele>
        <time>2021-01-19T10:40:08Z</time>
      </trkpt>
      <trkpt lat="45.974507" lon="13.885177">
        <ele>1400</ele>
        <time>2021-01-19T10:40:34Z</time>
      </trkpt>
      <trkpt lat="45.974507" lon="13.885177">
        <ele>1400</ele>
        <time>2021-01-19T10:43:19Z</time>
      </trkpt>
      <trkpt lat="45.974429" lon="13.884849">
        <ele>1403</ele>
        <time>2021-01-19T10:43:20Z</time>
      </trkpt>
      <trkpt lat="45.974421" lon="13.884818">
        <ele>1405</ele>
        <time>2021-01-19T10:43:46Z</time>
      </trkpt>
      <trkpt lat="45.974421" lon="13.884818">
        <ele>1405</ele>
        <time>2021-01-19T10:51:37Z</time>
      </trkpt>
      <trkpt lat="45.974405" lon="13.884434">
        <ele>1414</ele>
        <time>2021-01-19T10:51:38Z</time>
      </trkpt>
      <trkpt lat="45.97441" lon="13.884426">
        <ele>1415</ele>
        <time>2021-01-19T10:52:03Z</time>
      </trkpt>
      <trkpt lat="45.97441" lon="13.884426">
        <ele>1415</ele>
        <time>2021-01-19T10:52:53Z</time>
      </trkpt>
      <trkpt lat="45.97461" lon="13.884179">
        <ele>1418</ele>
        <time>2021-01-19T10:52:54Z</time>
      </trkpt>
      <trkpt lat="45.974731" lon="13.884074">
        <ele>1419</ele>
        <time>2021-01-19T10:52:57Z</time>
      </trkpt>
      <trkpt lat="45.974825" lon="13.884007">
        <ele>1421</ele>
        <time>2021-01-19T10:53:11Z</time>
      </trkpt>
      <trkpt lat="45.974926" lon="13.883942">
        <ele>1424</ele>
        <time>2021-01-19T10:53:25Z</time>
      </trkpt>
      <trkpt lat="45.974962" lon="13.883902">
        <ele>1427</ele>
        <time>2021-01-19T10:53:52Z</time>
      </trkpt>
      <trkpt lat="45.974962" lon="13.883902">
        <ele>1427</ele>
        <time>2021-01-19T10:56:01Z</time>
      </trkpt>
      <trkpt lat="45.975105" lon="13.883642">
        <ele>1431</ele>
        <time>2021-01-19T10:56:02Z</time>
      </trkpt>
      <trkpt lat="45.975117" lon="13.883622">
        <ele>1433</ele>
        <time>2021-01-19T10:56:28Z</time>
      </trkpt>
      <trkpt lat="45.975117" lon="13.883622">
        <ele>1433</ele>
        <time>2021-01-19T10:59:17Z</time>
      </trkpt>
      <trkpt lat="45.975001" lon="13.883914">
        <ele>1438</ele>
        <time>2021-01-19T10:59:18Z</time>
      </trkpt>
      <trkpt lat="45.974936" lon="13.884045">
        <ele>1439</ele>
        <time>2021-01-19T10:59:33Z</time>
      </trkpt>
      <trkpt lat="45.974862" lon="13.884181">
        <ele>1440</ele>
        <time>2021-01-19T10:59:36Z</time>
      </trkpt>
      <trkpt lat="45.974791" lon="13.884307">
        <ele>1443</ele>
        <time>2021-01-19T10:59:58Z</time>
      </trkpt>
      <trkpt lat="45.97478" lon="13.88433">
        <ele>1446</ele>
        <time>2021-01-19T11:00:23Z</time>
      </trkpt>
      <trkpt lat="45.97478" lon="13.88433">
        <ele>1446</ele>
        <time>2021-01-19T11:03:19Z</time>
      </trkpt>
      <trkpt lat="45.974533" lon="13.8845">
        <ele>1445</ele>
        <time>2021-01-19T11:03:20Z</time>
      </trkpt>
      <trkpt lat="45.974489" lon="13.884617">
        <ele>1444</ele>
        <time>2021-01-19T11:03:43Z</time>
      </trkpt>
      <trkpt lat="45.974473" lon="13.884744">
        <ele>1443</ele>
        <time>2021-01-19T11:03:57Z</time>
      </trkpt>
      <trkpt lat="45.974473" lon="13.884776">
        <ele>1441</ele>
        <time>2021-01-19T11:04:20Z</time>
      </trkpt>
      <trkpt lat="45.974473" lon="13.884776">
        <ele>1441</ele>
        <time>2021-01-19T11:04:25Z</time>
      </trkpt>
      <trkpt lat="45.974485" lon="13.8851">
        <ele>1440</ele>
        <time>2021-01-19T11:04:26Z</time>
      </trkpt>
      <trkpt lat="45.974498" lon="13.885213">
        <ele>1435</ele>
        <time>2021-01-19T11:04:54Z</time>
      </trkpt>
      <trkpt lat="45.974498" lon="13.885213">
        <ele>1435</ele>
        <time>2021-01-19T11:09:49Z</time>
      </trkpt>
      <trkpt lat="45.974658" lon="13.885464">
        <ele>1430</ele>
        <time>2021-01-19T11:09:50Z</time>
      </trkpt>
      <trkpt lat="45.974753" lon="13.885548">
        <ele>1430</ele>
        <time>2021-01-19T11:09:55Z</time>
      </trkpt>
      <trkpt lat="45.974766" lon="13.885561">
        <ele>1424</ele>
        <time>2021-01-19T11:10:20Z</time>
      </trkpt>
      <trkpt lat="45.974766" lon="13.885561">
        <ele>1369</ele>
        <time>2021-01-19T11:17:47Z</time>
      </trkpt>
    </trkseg>
    <trkseg>
      <trkpt lat="45.975068" lon="13.885623">
        <ele>1414</ele>
        <time>2021-01-19T11:23:50Z</time>
      </trkpt>
      <trkpt lat="45.975068" lon="13.885623">
        <ele>1414</ele>
        <time>2021-01-19T11:23:51Z</time>
      </trkpt>
      <trkpt lat="45.975068" lon="13.885623">
        <ele>1414</ele>
        <time>2021-01-19T11:23:57Z</time>
      </trkpt>
      <trkpt lat="45.975068" lon="13.885623">
        <ele>1414</ele>
        <time>2021-01-19T11:27:28Z</time>
      </trkpt>
      <trkpt lat="45.974999" lon="13.885948">
        <ele>1412</ele>
        <time>2021-01-19T11:27:29Z</time>
      </trkpt>
      <trkpt lat="45.974995" lon="13.886088">
        <ele>1412</ele>
        <time>2021-01-19T11:27:32Z</time>
      </trkpt>
      <trkpt lat="45.974976" lon="13.886233">
        <ele>1412</ele>
        <time>2021-01-19T11:27:36Z</time>
      </trkpt>
      <trkpt lat="45.974939" lon="13.886377">
        <ele>1411</ele>
        <time>2021-01-19T11:27:42Z</time>
      </trkpt>
      <trkpt lat="45.974905" lon="13.886505">
        <ele>1411</ele>
        <time>2021-01-19T11:27:46Z</time>
      </trkpt>
      <trkpt lat="45.974867" lon="13.886636">
        <ele>1410</ele>
        <time>2021-01-19T11:27:49Z</time>
      </trkpt>
      <trkpt lat="45.974834" lon="13.886787">
        <ele>1409</ele>
        <time>2021-01-19T11:27:52Z</time>
      </trkpt>
      <trkpt lat="45.974938" lon="13.886731">
        <ele>1405</ele>
        <time>2021-01-19T11:28:09Z</time>
      </trkpt>
      <trkpt lat="45.974997" lon="13.886627">
        <ele>1404</ele>
        <time>2021-01-19T11:28:13Z</time>
      </trkpt>
      <trkpt lat="45.975065" lon="13.886527">
        <ele>1401</ele>
        <time>2021-01-19T11:28:19Z</time>
      </trkpt>
      <trkpt lat="45.975149" lon="13.886452">
        <ele>1393</ele>
        <time>2021-01-19T11:28:45Z</time>
      </trkpt>
      <trkpt lat="45.975222" lon="13.88635">
        <ele>1391</ele>
        <time>2021-01-19T11:28:49Z</time>
      </trkpt>
      <trkpt lat="45.975313" lon="13.886253">
        <ele>1390</ele>
        <time>2021-01-19T11:28:54Z</time>
      </trkpt>
      <trkpt lat="45.975388" lon="13.886167">
        <ele>1389</ele>
        <time>2021-01-19T11:29:00Z</time>
      </trkpt>
      <trkpt lat="45.975472" lon="13.886096">
        <ele>1388</ele>
        <time>2021-01-19T11:29:05Z</time>
      </trkpt>
      <trkpt lat="45.975572" lon="13.886116">
        <ele>1387</ele>
        <time>2021-01-19T11:29:10Z</time>
      </trkpt>
      <trkpt lat="45.97569" lon="13.886092">
        <ele>1385</ele>
        <time>2021-01-19T11:29:19Z</time>
      </trkpt>
      <trkpt lat="45.9758" lon="13.886038">
        <ele>1384</ele>
        <time>2021-01-19T11:29:23Z</time>
      </trkpt>
      <trkpt lat="45.975892" lon="13.885999">
        <ele>1383</ele>
        <time>2021-01-19T11:29:28Z</time>
      </trkpt>
      <trkpt lat="45.975987" lon="13.88598">
        <ele>1379</ele>
        <time>2021-01-19T11:29:51Z</time>
      </trkpt>
      <trkpt lat="45.976063" lon="13.885877">
        <ele>1377</ele>
        <time>2021-01-19T11:30:12Z</time>
      </trkpt>
      <trkpt lat="45.976128" lon="13.885842">
        <ele>1375</ele>
        <time>2021-01-19T11:30:39Z</time>
      </trkpt>
      <trkpt lat="45.976128" lon="13.885842">
        <ele>1375</ele>
        <time>2021-01-19T11:31:38Z</time>
      </trkpt>
      <trkpt lat="45.976308" lon="13.885647">
        <ele>1374</ele>
        <time>2021-01-19T11:31:39Z</time>
      </trkpt>
      <trkpt lat="45.976358" lon="13.885526">
        <ele>1373</ele>
        <time>2021-01-19T11:31:48Z</time>
      </trkpt>
      <trkpt lat="45.976481" lon="13.885438">
        <ele>1373</ele>
        <time>2021-01-19T11:31:51Z</time>
      </trkpt>
      <trkpt lat="45.976591" lon="13.885425">
        <ele>1373</ele>
        <time>2021-01-19T11:31:54Z</time>
      </trkpt>
      <trkpt lat="45.97669" lon="13.885462">
        <ele>1373</ele>
        <time>2021-01-19T11:31:59Z</time>
      </trkpt>
      <trkpt lat="45.976782" lon="13.885471">
        <ele>1373</ele>
        <time>2021-01-19T11:32:04Z</time>
      </trkpt>
      <trkpt lat="45.976894" lon="13.885448">
        <ele>1373</ele>
        <time>2021-01-19T11:32:13Z</time>
      </trkpt>
      <trkpt lat="45.976983" lon="13.885473">
        <ele>1373</ele>
        <time>2021-01-19T11:32:27Z</time>
      </trkpt>
      <trkpt lat="45.97707" lon="13.885518">
        <ele>1372</ele>
        <time>2021-01-19T11:32:33Z</time>
      </trkpt>
      <trkpt lat="45.977164" lon="13.885565">
        <ele>1370</ele>
        <time>2021-01-19T11:32:50Z</time>
      </trkpt>
      <trkpt lat="45.977268" lon="13.885596">
        <ele>1367</ele>
        <time>2021-01-19T11:33:10Z</time>
      </trkpt>
      <trkpt lat="45.977291" lon="13.885612">
        <ele>1366</ele>
        <time>2021-01-19T11:33:36Z</time>
      </trkpt>
      <trkpt lat="45.977291" lon="13.885612">
        <ele>1366</ele>
        <time>2021-01-19T11:34:58Z</time>
      </trkpt>
      <trkpt lat="45.977488" lon="13.885779">
        <ele>1367</ele>
        <time>2021-01-19T11:34:59Z</time>
      </trkpt>
      <trkpt lat="45.977522" lon="13.885779">
        <ele>1367</ele>
        <time>2021-01-19T11:35:26Z</time>
      </trkpt>
      <trkpt lat="45.977522" lon="13.885779">
        <ele>1323</ele>
        <time>2021-01-19T11:37:19Z</time>
      </trkpt>
    </trkseg>
    <trkseg>
      <trkpt lat="45.977746" lon="13.885787">
        <ele>1366</ele>
        <time>2021-01-19T11:38:53Z</time>
      </trkpt>
      <trkpt lat="45.977746" lon="13.885787">
        <ele>1366</ele>
        <time>2021-01-19T11:38:53Z</time>
      </trkpt>
      <trkpt lat="45.977748" lon="13.885787">
        <ele>1366</ele>
        <time>2021-01-19T11:38:59Z</time>
      </trkpt>
      <trkpt lat="45.977748" lon="13.885787">
        <ele>1366</ele>
        <time>2021-01-19T11:39:53Z</time>
      </trkpt>
      <trkpt lat="45.978025" lon="13.885746">
        <ele>1368</ele>
        <time>2021-01-19T11:39:54Z</time>
      </trkpt>
      <trkpt lat="45.978128" lon="13.885733">
        <ele>1368</ele>
        <time>2021-01-19T11:39:57Z</time>
      </trkpt>
      <trkpt lat="45.978227" lon="13.885765">
        <ele>1368</ele>
        <time>2021-01-19T11:40:04Z</time>
      </trkpt>
      <trkpt lat="45.978317" lon="13.885781">
        <ele>1368</ele>
        <time>2021-01-19T11:40:23Z</time>
      </trkpt>
      <trkpt lat="45.978433" lon="13.885813">
        <ele>1369</ele>
        <time>2021-01-19T11:40:34Z</time>
      </trkpt>
      <trkpt lat="45.978524" lon="13.885824">
        <ele>1369</ele>
        <time>2021-01-19T11:40:38Z</time>
      </trkpt>
      <trkpt lat="45.978529" lon="13.885824">
        <ele>1367</ele>
        <time>2021-01-19T11:41:03Z</time>
      </trkpt>
      <trkpt lat="45.978529" lon="13.885824">
        <ele>1367</ele>
        <time>2021-01-19T11:43:10Z</time>
      </trkpt>
      <trkpt lat="45.978725" lon="13.885626">
        <ele>1362</ele>
        <time>2021-01-19T11:43:11Z</time>
      </trkpt>
      <trkpt lat="45.978829" lon="13.88563">
        <ele>1359</ele>
        <time>2021-01-19T11:43:31Z</time>
      </trkpt>
      <trkpt lat="45.978919" lon="13.885658">
        <ele>1358</ele>
        <time>2021-01-19T11:43:39Z</time>
      </trkpt>
      <trkpt lat="45.979015" lon="13.885724">
        <ele>1354</ele>
        <time>2021-01-19T11:44:04Z</time>
      </trkpt>
      <trkpt lat="45.9791" lon="13.885782">
        <ele>1353</ele>
        <time>2021-01-19T11:44:28Z</time>
      </trkpt>
      <trkpt lat="45.979187" lon="13.885771">
        <ele>1351</ele>
        <time>2021-01-19T11:45:02Z</time>
      </trkpt>
      <trkpt lat="45.979187" lon="13.885771">
        <ele>1351</ele>
        <time>2021-01-19T11:48:12Z</time>
      </trkpt>
      <trkpt lat="45.979429" lon="13.885763">
        <ele>1348</ele>
        <time>2021-01-19T11:48:13Z</time>
      </trkpt>
      <trkpt lat="45.979528" lon="13.885745">
        <ele>1347</ele>
        <time>2021-01-19T11:48:23Z</time>
      </trkpt>
      <trkpt lat="45.979646" lon="13.885748">
        <ele>1347</ele>
        <time>2021-01-19T11:48:26Z</time>
      </trkpt>
      <trkpt lat="45.979743" lon="13.88575">
        <ele>1346</ele>
        <time>2021-01-19T11:48:30Z</time>
      </trkpt>
      <trkpt lat="45.979764" lon="13.885752">
        <ele>1341</ele>
        <time>2021-01-19T11:48:55Z</time>
      </trkpt>
      <trkpt lat="45.979764" lon="13.885752">
        <ele>1341</ele>
        <time>2021-01-19T11:49:10Z</time>
      </trkpt>
      <trkpt lat="45.979988" lon="13.885881">
        <ele>1338</ele>
        <time>2021-01-19T11:49:11Z</time>
      </trkpt>
      <trkpt lat="45.98009" lon="13.88586">
        <ele>1337</ele>
        <time>2021-01-19T11:49:16Z</time>
      </trkpt>
      <trkpt lat="45.980194" lon="13.885841">
        <ele>1333</ele>
        <time>2021-01-19T11:49:40Z</time>
      </trkpt>
      <trkpt lat="45.980298" lon="13.885822">
        <ele>1333</ele>
        <time>2021-01-19T11:49:44Z</time>
      </trkpt>
      <trkpt lat="45.980341" lon="13.885812">
        <ele>1327</ele>
        <time>2021-01-19T11:50:10Z</time>
      </trkpt>
      <trkpt lat="45.980341" lon="13.885812">
        <ele>1327</ele>
        <time>2021-01-19T11:51:13Z</time>
      </trkpt>
      <trkpt lat="45.980571" lon="13.885809">
        <ele>1322</ele>
        <time>2021-01-19T11:51:14Z</time>
      </trkpt>
      <trkpt lat="45.980574" lon="13.88581">
        <ele>1318</ele>
        <time>2021-01-19T11:51:38Z</time>
      </trkpt>
      <trkpt lat="45.980574" lon="13.88581">
        <ele>1318</ele>
        <time>2021-01-19T11:51:44Z</time>
      </trkpt>
      <trkpt lat="45.980803" lon="13.88582">
        <ele>1317</ele>
        <time>2021-01-19T11:51:45Z</time>
      </trkpt>
      <trkpt lat="45.980908" lon="13.885842">
        <ele>1313</ele>
        <time>2021-01-19T11:52:02Z</time>
      </trkpt>
      <trkpt lat="45.981012" lon="13.885832">
        <ele>1313</ele>
        <time>2021-01-19T11:52:05Z</time>
      </trkpt>
      <trkpt lat="45.981122" lon="13.885868">
        <ele>1313</ele>
        <time>2021-01-19T11:52:08Z</time>
      </trkpt>
      <trkpt lat="45.981174" lon="13.885924">
        <ele>1309</ele>
        <time>2021-01-19T11:52:36Z</time>
      </trkpt>
      <trkpt lat="45.981174" lon="13.885924">
        <ele>1309</ele>
        <time>2021-01-19T11:52:54Z</time>
      </trkpt>
      <trkpt lat="45.981412" lon="13.885888">
        <ele>1306</ele>
        <time>2021-01-19T11:52:55Z</time>
      </trkpt>
      <trkpt lat="45.98151" lon="13.885885">
        <ele>1305</ele>
        <time>2021-01-19T11:53:05Z</time>
      </trkpt>
      <trkpt lat="45.981606" lon="13.885933">
        <ele>1302</ele>
        <time>2021-01-19T11:53:19Z</time>
      </trkpt>
      <trkpt lat="45.981671" lon="13.886033">
        <ele>1302</ele>
        <time>2021-01-19T11:53:22Z</time>
      </trkpt>
      <trkpt lat="45.981742" lon="13.886124">
        <ele>1302</ele>
        <time>2021-01-19T11:53:24Z</time>
      </trkpt>
      <trkpt lat="45.981782" lon="13.886177">
        <ele>1301</ele>
        <time>2021-01-19T11:53:51Z</time>
      </trkpt>
      <trkpt lat="45.981782" lon="13.886177">
        <ele>1301</ele>
        <time>2021-01-19T11:55:21Z</time>
      </trkpt>
      <trkpt lat="45.982017" lon="13.886267">
        <ele>1301</ele>
        <time>2021-01-19T11:55:22Z</time>
      </trkpt>
      <trkpt lat="45.982149" lon="13.886333">
        <ele>1301</ele>
        <time>2021-01-19T11:55:25Z</time>
      </trkpt>
      <trkpt lat="45.982231" lon="13.886398">
        <ele>1301</ele>
        <time>2021-01-19T11:55:27Z</time>
      </trkpt>
      <trkpt lat="45.982308" lon="13.88647">
        <ele>1300</ele>
        <time>2021-01-19T11:55:41Z</time>
      </trkpt>
      <trkpt lat="45.982391" lon="13.886549">
        <ele>1298</ele>
        <time>2021-01-19T11:55:54Z</time>
      </trkpt>
      <trkpt lat="45.982488" lon="13.88659">
        <ele>1298</ele>
        <time>2021-01-19T11:55:57Z</time>
      </trkpt>
      <trkpt lat="45.982576" lon="13.886634">
        <ele>1297</ele>
        <time>2021-01-19T11:56:06Z</time>
      </trkpt>
      <trkpt lat="45.98265" lon="13.886737">
        <ele>1296</ele>
        <time>2021-01-19T11:56:14Z</time>
      </trkpt>
      <trkpt lat="45.982666" lon="13.886763">
        <ele>1295</ele>
        <time>2021-01-19T11:56:40Z</time>
      </trkpt>
      <trkpt lat="45.982666" lon="13.886763">
        <ele>1295</ele>
        <time>2021-01-19T11:58:58Z</time>
      </trkpt>
      <trkpt lat="45.982878" lon="13.886905">
        <ele>1295</ele>
        <time>2021-01-19T11:58:59Z</time>
      </trkpt>
      <trkpt lat="45.982901" lon="13.88692">
        <ele>1295</ele>
        <time>2021-01-19T11:59:25Z</time>
      </trkpt>
      <trkpt lat="45.982901" lon="13.88692">
        <ele>1295</ele>
        <time>2021-01-19T12:02:05Z</time>
      </trkpt>
      <trkpt lat="45.983129" lon="13.887183">
        <ele>1295</ele>
        <time>2021-01-19T12:02:06Z</time>
      </trkpt>
      <trkpt lat="45.983227" lon="13.887286">
        <ele>1295</ele>
        <time>2021-01-19T12:02:07Z</time>
      </trkpt>
      <trkpt lat="45.98331" lon="13.887364">
        <ele>1295</ele>
        <time>2021-01-19T12:02:08Z</time>
      </trkpt>
      <trkpt lat="45.983443" lon="13.88747">
        <ele>1295</ele>
        <time>2021-01-19T12:02:10Z</time>
      </trkpt>
      <trkpt lat="45.983471" lon="13.887493">
        <ele>1295</ele>
        <time>2021-01-19T12:02:35Z</time>
      </trkpt>
      <trkpt lat="45.983471" lon="13.887493">
        <ele>1295</ele>
        <time>2021-01-19T12:03:48Z</time>
      </trkpt>
      <trkpt lat="45.983637" lon="13.887784">
        <ele>1295</ele>
        <time>2021-01-19T12:03:49Z</time>
      </trkpt>
      <trkpt lat="45.983721" lon="13.887899">
        <ele>1295</ele>
        <time>2021-01-19T12:03:52Z</time>
      </trkpt>
      <trkpt lat="45.9838" lon="13.887966">
        <ele>1295</ele>
        <time>2021-01-19T12:04:17Z</time>
      </trkpt>
      <trkpt lat="45.983891" lon="13.887997">
        <ele>1294</ele>
        <time>2021-01-19T12:04:29Z</time>
      </trkpt>
      <trkpt lat="45.98398" lon="13.888013">
        <ele>1294</ele>
        <time>2021-01-19T12:04:34Z</time>
      </trkpt>
      <trkpt lat="45.984057" lon="13.888094">
        <ele>1294</ele>
        <time>2021-01-19T12:04:52Z</time>
      </trkpt>
      <trkpt lat="45.984062" lon="13.888101">
        <ele>1294</ele>
        <time>2021-01-19T12:05:16Z</time>
      </trkpt>
      <trkpt lat="45.984062" lon="13.888101">
        <ele>1294</ele>
        <time>2021-01-19T12:14:19Z</time>
      </trkpt>
      <trkpt lat="45.984997" lon="13.888099">
        <ele>1292</ele>
        <time>2021-01-19T12:14:20Z</time>
      </trkpt>
      <trkpt lat="45.98503" lon="13.888095">
        <ele>1290</ele>
        <time>2021-01-19T12:14:46Z</time>
      </trkpt>
      <trkpt lat="45.98503" lon="13.888095">
        <ele>1290</ele>
        <time>2021-01-19T12:16:37Z</time>
      </trkpt>
      <trkpt lat="45.985247" lon="13.887965">
        <ele>1289</ele>
        <time>2021-01-19T12:16:38Z</time>
      </trkpt>
      <trkpt lat="45.985341" lon="13.887893">
        <ele>1289</ele>
        <time>2021-01-19T12:16:40Z</time>
      </trkpt>
      <trkpt lat="45.985432" lon="13.887828">
        <ele>1289</ele>
        <time>2021-01-19T12:16:42Z</time>
      </trkpt>
      <trkpt lat="45.985519" lon="13.887761">
        <ele>1289</ele>
        <time>2021-01-19T12:16:44Z</time>
      </trkpt>
      <trkpt lat="45.985626" lon="13.887683">
        <ele>1289</ele>
        <time>2021-01-19T12:16:46Z</time>
      </trkpt>
      <trkpt lat="45.985722" lon="13.887615">
        <ele>1289</ele>
        <time>2021-01-19T12:16:48Z</time>
      </trkpt>
      <trkpt lat="45.985863" lon="13.887518">
        <ele>1288</ele>
        <time>2021-01-19T12:16:51Z</time>
      </trkpt>
      <trkpt lat="45.986044" lon="13.887371">
        <ele>1288</ele>
        <time>2021-01-19T12:16:55Z</time>
      </trkpt>
      <trkpt lat="45.986184" lon="13.887143">
        <ele>1287</ele>
        <time>2021-01-19T12:17:00Z</time>
      </trkpt>
      <trkpt lat="45.986211" lon="13.88702">
        <ele>1281</ele>
        <time>2021-01-19T12:17:29Z</time>
      </trkpt>
      <trkpt lat="45.986211" lon="13.88702">
        <ele>1281</ele>
        <time>2021-01-19T12:17:41Z</time>
      </trkpt>
      <trkpt lat="45.986348" lon="13.887278">
        <ele>1279</ele>
        <time>2021-01-19T12:17:42Z</time>
      </trkpt>
      <trkpt lat="45.986437" lon="13.887344">
        <ele>1279</ele>
        <time>2021-01-19T12:17:46Z</time>
      </trkpt>
      <trkpt lat="45.986537" lon="13.887392">
        <ele>1279</ele>
        <time>2021-01-19T12:17:50Z</time>
      </trkpt>
      <trkpt lat="45.986634" lon="13.887413">
        <ele>1280</ele>
        <time>2021-01-19T12:17:53Z</time>
      </trkpt>
      <trkpt lat="45.986741" lon="13.887426">
        <ele>1280</ele>
        <time>2021-01-19T12:17:56Z</time>
      </trkpt>
      <trkpt lat="45.986878" lon="13.887445">
        <ele>1281</ele>
        <time>2021-01-19T12:17:59Z</time>
      </trkpt>
      <trkpt lat="45.987026" lon="13.887475">
        <ele>1281</ele>
        <time>2021-01-19T12:18:02Z</time>
      </trkpt>
      <trkpt lat="45.987195" lon="13.887549">
        <ele>1282</ele>
        <time>2021-01-19T12:18:05Z</time>
      </trkpt>
      <trkpt lat="45.987332" lon="13.887641">
        <ele>1283</ele>
        <time>2021-01-19T12:18:08Z</time>
      </trkpt>
      <trkpt lat="45.987496" lon="13.887803">
        <ele>1284</ele>
        <time>2021-01-19T12:18:14Z</time>
      </trkpt>
      <trkpt lat="45.987673" lon="13.887871">
        <ele>1285</ele>
        <time>2021-01-19T12:18:18Z</time>
      </trkpt>
      <trkpt lat="45.987845" lon="13.888008">
        <ele>1286</ele>
        <time>2021-01-19T12:18:23Z</time>
      </trkpt>
      <trkpt lat="45.987859" lon="13.88824">
        <ele>1286</ele>
        <time>2021-01-19T12:18:29Z</time>
      </trkpt>
      <trkpt lat="45.987779" lon="13.888414">
        <ele>1285</ele>
        <time>2021-01-19T12:18:34Z</time>
      </trkpt>
      <trkpt lat="45.987719" lon="13.888565">
        <ele>1283</ele>
        <time>2021-01-19T12:18:41Z</time>
      </trkpt>
      <trkpt lat="45.987673" lon="13.8887">
        <ele>1281</ele>
        <time>2021-01-19T12:18:46Z</time>
      </trkpt>
      <trkpt lat="45.987658" lon="13.888852">
        <ele>1277</ele>
        <time>2021-01-19T12:18:53Z</time>
      </trkpt>
      <trkpt lat="45.987651" lon="13.889">
        <ele>1275</ele>
        <time>2021-01-19T12:18:56Z</time>
      </trkpt>
      <trkpt lat="45.987661" lon="13.889175">
        <ele>1274</ele>
        <time>2021-01-19T12:18:59Z</time>
      </trkpt>
      <trkpt lat="45.987687" lon="13.889305">
        <ele>1273</ele>
        <time>2021-01-19T12:19:01Z</time>
      </trkpt>
      <trkpt lat="45.98776" lon="13.88941">
        <ele>1266</ele>
        <time>2021-01-19T12:19:22Z</time>
      </trkpt>
      <trkpt lat="45.987835" lon="13.889498">
        <ele>1266</ele>
        <time>2021-01-19T12:19:27Z</time>
      </trkpt>
      <trkpt lat="45.987863" lon="13.889641">
        <ele>1265</ele>
        <time>2021-01-19T12:19:32Z</time>
      </trkpt>
      <trkpt lat="45.987867" lon="13.889796">
        <ele>1264</ele>
        <time>2021-01-19T12:19:36Z</time>
      </trkpt>
      <trkpt lat="45.987863" lon="13.889926">
        <ele>1263</ele>
        <time>2021-01-19T12:19:39Z</time>
      </trkpt>
      <trkpt lat="45.987878" lon="13.890058">
        <ele>1262</ele>
        <time>2021-01-19T12:19:43Z</time>
      </trkpt>
      <trkpt lat="45.987876" lon="13.890193">
        <ele>1261</ele>
        <time>2021-01-19T12:19:47Z</time>
      </trkpt>
      <trkpt lat="45.987892" lon="13.890353">
        <ele>1258</ele>
        <time>2021-01-19T12:19:52Z</time>
      </trkpt>
      <trkpt lat="45.98791" lon="13.890515">
        <ele>1257</ele>
        <time>2021-01-19T12:19:56Z</time>
      </trkpt>
      <trkpt lat="45.987937" lon="13.890666">
        <ele>1255</ele>
        <time>2021-01-19T12:19:59Z</time>
      </trkpt>
      <trkpt lat="45.98794" lon="13.890799">
        <ele>1254</ele>
        <time>2021-01-19T12:20:01Z</time>
      </trkpt>
      <trkpt lat="45.98801" lon="13.890931">
        <ele>1248</ele>
        <time>2021-01-19T12:20:17Z</time>
      </trkpt>
      <trkpt lat="45.98809" lon="13.891021">
        <ele>1248</ele>
        <time>2021-01-19T12:20:20Z</time>
      </trkpt>
      <trkpt lat="45.988139" lon="13.891141">
        <ele>1247</ele>
        <time>2021-01-19T12:20:25Z</time>
      </trkpt>
      <trkpt lat="45.988179" lon="13.891279">
        <ele>1246</ele>
        <time>2021-01-19T12:20:30Z</time>
      </trkpt>
      <trkpt lat="45.988207" lon="13.891407">
        <ele>1245</ele>
        <time>2021-01-19T12:20:35Z</time>
      </trkpt>
      <trkpt lat="45.98825" lon="13.89155">
        <ele>1243</ele>
        <time>2021-01-19T12:20:40Z</time>
      </trkpt>
      <trkpt lat="45.988282" lon="13.891709">
        <ele>1239</ele>
        <time>2021-01-19T12:20:49Z</time>
      </trkpt>
      <trkpt lat="45.988305" lon="13.891842">
        <ele>1237</ele>
        <time>2021-01-19T12:20:52Z</time>
      </trkpt>
      <trkpt lat="45.988346" lon="13.891981">
        <ele>1235</ele>
        <time>2021-01-19T12:20:56Z</time>
      </trkpt>
      <trkpt lat="45.988408" lon="13.892097">
        <ele>1233</ele>
        <time>2021-01-19T12:21:00Z</time>
      </trkpt>
      <trkpt lat="45.988442" lon="13.892221">
        <ele>1230</ele>
        <time>2021-01-19T12:21:05Z</time>
      </trkpt>
      <trkpt lat="45.988467" lon="13.892363">
        <ele>1224</ele>
        <time>2021-01-19T12:21:19Z</time>
      </trkpt>
      <trkpt lat="45.988459" lon="13.892493">
        <ele>1222</ele>
        <time>2021-01-19T12:21:23Z</time>
      </trkpt>
      <trkpt lat="45.988453" lon="13.89266">
        <ele>1222</ele>
        <time>2021-01-19T12:21:27Z</time>
      </trkpt>
      <trkpt lat="45.98847" lon="13.892799">
        <ele>1219</ele>
        <time>2021-01-19T12:21:45Z</time>
      </trkpt>
      <trkpt lat="45.988489" lon="13.892951">
        <ele>1218</ele>
        <time>2021-01-19T12:21:49Z</time>
      </trkpt>
      <trkpt lat="45.988492" lon="13.89311">
        <ele>1218</ele>
        <time>2021-01-19T12:21:53Z</time>
      </trkpt>
      <trkpt lat="45.988475" lon="13.893262">
        <ele>1217</ele>
        <time>2021-01-19T12:21:56Z</time>
      </trkpt>
      <trkpt lat="45.988453" lon="13.893387">
        <ele>1217</ele>
        <time>2021-01-19T12:21:58Z</time>
      </trkpt>
      <trkpt lat="45.988451" lon="13.893559">
        <ele>1217</ele>
        <time>2021-01-19T12:22:00Z</time>
      </trkpt>
      <trkpt lat="45.988499" lon="13.893747">
        <ele>1216</ele>
        <time>2021-01-19T12:22:02Z</time>
      </trkpt>
      <trkpt lat="45.988586" lon="13.893912">
        <ele>1216</ele>
        <time>2021-01-19T12:22:04Z</time>
      </trkpt>
      <trkpt lat="45.988766" lon="13.894091">
        <ele>1216</ele>
        <time>2021-01-19T12:22:07Z</time>
      </trkpt>
      <trkpt lat="45.988962" lon="13.894227">
        <ele>1215</ele>
        <time>2021-01-19T12:22:11Z</time>
      </trkpt>
      <trkpt lat="45.989137" lon="13.894434">
        <ele>1213</ele>
        <time>2021-01-19T12:22:17Z</time>
      </trkpt>
      <trkpt lat="45.989323" lon="13.894596">
        <ele>1211</ele>
        <time>2021-01-19T12:22:24Z</time>
      </trkpt>
      <trkpt lat="45.989335" lon="13.894775">
        <ele>1207</ele>
        <time>2021-01-19T12:22:32Z</time>
      </trkpt>
      <trkpt lat="45.989419" lon="13.8949">
        <ele>1198</ele>
        <time>2021-01-19T12:22:53Z</time>
      </trkpt>
      <trkpt lat="45.989495" lon="13.895009">
        <ele>1197</ele>
        <time>2021-01-19T12:22:56Z</time>
      </trkpt>
      <trkpt lat="45.989563" lon="13.895121">
        <ele>1195</ele>
        <time>2021-01-19T12:22:59Z</time>
      </trkpt>
      <trkpt lat="45.989629" lon="13.895234">
        <ele>1194</ele>
        <time>2021-01-19T12:23:02Z</time>
      </trkpt>
      <trkpt lat="45.989703" lon="13.895346">
        <ele>1193</ele>
        <time>2021-01-19T12:23:05Z</time>
      </trkpt>
      <trkpt lat="45.989754" lon="13.895456">
        <ele>1186</ele>
        <time>2021-01-19T12:23:27Z</time>
      </trkpt>
      <trkpt lat="45.989865" lon="13.895539">
        <ele>1185</ele>
        <time>2021-01-19T12:23:31Z</time>
      </trkpt>
      <trkpt lat="45.989965" lon="13.895553">
        <ele>1184</ele>
        <time>2021-01-19T12:23:35Z</time>
      </trkpt>
      <trkpt lat="45.990058" lon="13.895553">
        <ele>1183</ele>
        <time>2021-01-19T12:23:40Z</time>
      </trkpt>
      <trkpt lat="45.990149" lon="13.895566">
        <ele>1182</ele>
        <time>2021-01-19T12:23:44Z</time>
      </trkpt>
      <trkpt lat="45.990246" lon="13.895608">
        <ele>1181</ele>
        <time>2021-01-19T12:23:48Z</time>
      </trkpt>
      <trkpt lat="45.990324" lon="13.895702">
        <ele>1180</ele>
        <time>2021-01-19T12:23:52Z</time>
      </trkpt>
      <trkpt lat="45.990343" lon="13.895842">
        <ele>1178</ele>
        <time>2021-01-19T12:23:56Z</time>
      </trkpt>
      <trkpt lat="45.990368" lon="13.896007">
        <ele>1177</ele>
        <time>2021-01-19T12:23:59Z</time>
      </trkpt>
      <trkpt lat="45.990398" lon="13.896148">
        <ele>1176</ele>
        <time>2021-01-19T12:24:01Z</time>
      </trkpt>
      <trkpt lat="45.990448" lon="13.896311">
        <ele>1175</ele>
        <time>2021-01-19T12:24:03Z</time>
      </trkpt>
      <trkpt lat="45.990498" lon="13.896473">
        <ele>1174</ele>
        <time>2021-01-19T12:24:05Z</time>
      </trkpt>
      <trkpt lat="45.990561" lon="13.896708">
        <ele>1173</ele>
        <time>2021-01-19T12:24:08Z</time>
      </trkpt>
      <trkpt lat="45.990644" lon="13.89697">
        <ele>1171</ele>
        <time>2021-01-19T12:24:12Z</time>
      </trkpt>
      <trkpt lat="45.990754" lon="13.897208">
        <ele>1169</ele>
        <time>2021-01-19T12:24:16Z</time>
      </trkpt>
      <trkpt lat="45.990861" lon="13.897453">
        <ele>1164</ele>
        <time>2021-01-19T12:24:25Z</time>
      </trkpt>
      <trkpt lat="45.990791" lon="13.897563">
        <ele>1155</ele>
        <time>2021-01-19T12:24:51Z</time>
      </trkpt>
      <trkpt lat="45.990695" lon="13.897643">
        <ele>1154</ele>
        <time>2021-01-19T12:24:55Z</time>
      </trkpt>
      <trkpt lat="45.990603" lon="13.897651">
        <ele>1149</ele>
        <time>2021-01-19T12:25:13Z</time>
      </trkpt>
      <trkpt lat="45.990498" lon="13.897695">
        <ele>1148</ele>
        <time>2021-01-19T12:25:16Z</time>
      </trkpt>
      <trkpt lat="45.990394" lon="13.897797">
        <ele>1147</ele>
        <time>2021-01-19T12:25:19Z</time>
      </trkpt>
      <trkpt lat="45.990316" lon="13.897861">
        <ele>1147</ele>
        <time>2021-01-19T12:25:21Z</time>
      </trkpt>
      <trkpt lat="45.990219" lon="13.897919">
        <ele>1146</ele>
        <time>2021-01-19T12:25:24Z</time>
      </trkpt>
      <trkpt lat="45.990114" lon="13.897944">
        <ele>1145</ele>
        <time>2021-01-19T12:25:28Z</time>
      </trkpt>
      <trkpt lat="45.990011" lon="13.89791">
        <ele>1144</ele>
        <time>2021-01-19T12:25:31Z</time>
      </trkpt>
      <trkpt lat="45.989861" lon="13.897825">
        <ele>1143</ele>
        <time>2021-01-19T12:25:35Z</time>
      </trkpt>
      <trkpt lat="45.989713" lon="13.897781">
        <ele>1142</ele>
        <time>2021-01-19T12:25:37Z</time>
      </trkpt>
      <trkpt lat="45.989572" lon="13.897759">
        <ele>1140</ele>
        <time>2021-01-19T12:25:44Z</time>
      </trkpt>
      <trkpt lat="45.989655" lon="13.897831">
        <ele>1138</ele>
        <time>2021-01-19T12:25:56Z</time>
      </trkpt>
      <trkpt lat="45.989758" lon="13.897897">
        <ele>1138</ele>
        <time>2021-01-19T12:26:00Z</time>
      </trkpt>
      <trkpt lat="45.989856" lon="13.897938">
        <ele>1137</ele>
        <time>2021-01-19T12:26:05Z</time>
      </trkpt>
      <trkpt lat="45.989949" lon="13.897981">
        <ele>1135</ele>
        <time>2021-01-19T12:26:12Z</time>
      </trkpt>
      <trkpt lat="45.990045" lon="13.898032">
        <ele>1134</ele>
        <time>2021-01-19T12:26:18Z</time>
      </trkpt>
      <trkpt lat="45.990142" lon="13.898105">
        <ele>1133</ele>
        <time>2021-01-19T12:26:23Z</time>
      </trkpt>
      <trkpt lat="45.990234" lon="13.898154">
        <ele>1132</ele>
        <time>2021-01-19T12:26:27Z</time>
      </trkpt>
      <trkpt lat="45.99033" lon="13.898201">
        <ele>1130</ele>
        <time>2021-01-19T12:26:31Z</time>
      </trkpt>
      <trkpt lat="45.990429" lon="13.898242">
        <ele>1130</ele>
        <time>2021-01-19T12:26:34Z</time>
      </trkpt>
      <trkpt lat="45.990552" lon="13.898292">
        <ele>1129</ele>
        <time>2021-01-19T12:26:37Z</time>
      </trkpt>
      <trkpt lat="45.990651" lon="13.89832">
        <ele>1128</ele>
        <time>2021-01-19T12:26:39Z</time>
      </trkpt>
      <trkpt lat="45.990792" lon="13.898365">
        <ele>1127</ele>
        <time>2021-01-19T12:26:42Z</time>
      </trkpt>
      <trkpt lat="45.990948" lon="13.898415">
        <ele>1125</ele>
        <time>2021-01-19T12:26:46Z</time>
      </trkpt>
      <trkpt lat="45.991086" lon="13.898457">
        <ele>1123</ele>
        <time>2021-01-19T12:26:54Z</time>
      </trkpt>
      <trkpt lat="45.991086" lon="13.898457">
        <ele>1118</ele>
        <time>2021-01-19T12:27:16Z</time>
      </trkpt>
      <trkpt lat="45.991086" lon="13.898457">
        <ele>1118</ele>
        <time>2021-01-19T12:28:02Z</time>
      </trkpt>
      <trkpt lat="45.991284" lon="13.898629">
        <ele>1116</ele>
        <time>2021-01-19T12:28:03Z</time>
      </trkpt>
      <trkpt lat="45.991364" lon="13.898736">
        <ele>1116</ele>
        <time>2021-01-19T12:28:06Z</time>
      </trkpt>
      <trkpt lat="45.991429" lon="13.898846">
        <ele>1116</ele>
        <time>2021-01-19T12:28:09Z</time>
      </trkpt>
      <trkpt lat="45.991467" lon="13.898964">
        <ele>1115</ele>
        <time>2021-01-19T12:28:15Z</time>
      </trkpt>
      <trkpt lat="45.991426" lon="13.899086">
        <ele>1113</ele>
        <time>2021-01-19T12:28:35Z</time>
      </trkpt>
      <trkpt lat="45.991435" lon="13.89924">
        <ele>1112</ele>
        <time>2021-01-19T12:28:39Z</time>
      </trkpt>
      <trkpt lat="45.991475" lon="13.899387">
        <ele>1110</ele>
        <time>2021-01-19T12:28:47Z</time>
      </trkpt>
      <trkpt lat="45.991503" lon="13.899518">
        <ele>1109</ele>
        <time>2021-01-19T12:28:50Z</time>
      </trkpt>
      <trkpt lat="45.991544" lon="13.899667">
        <ele>1108</ele>
        <time>2021-01-19T12:28:53Z</time>
      </trkpt>
      <trkpt lat="45.991585" lon="13.899789">
        <ele>1108</ele>
        <time>2021-01-19T12:28:56Z</time>
      </trkpt>
      <trkpt lat="45.991661" lon="13.899913">
        <ele>1107</ele>
        <time>2021-01-19T12:29:00Z</time>
      </trkpt>
      <trkpt lat="45.991727" lon="13.900019">
        <ele>1103</ele>
        <time>2021-01-19T12:29:20Z</time>
      </trkpt>
      <trkpt lat="45.99171" lon="13.900155">
        <ele>1103</ele>
        <time>2021-01-19T12:29:25Z</time>
      </trkpt>
      <trkpt lat="45.991658" lon="13.9003">
        <ele>1101</ele>
        <time>2021-01-19T12:29:30Z</time>
      </trkpt>
      <trkpt lat="45.991603" lon="13.900408">
        <ele>1101</ele>
        <time>2021-01-19T12:29:33Z</time>
      </trkpt>
      <trkpt lat="45.991551" lon="13.900521">
        <ele>1100</ele>
        <time>2021-01-19T12:29:35Z</time>
      </trkpt>
      <trkpt lat="45.991467" lon="13.900683">
        <ele>1100</ele>
        <time>2021-01-19T12:29:37Z</time>
      </trkpt>
      <trkpt lat="45.991408" lon="13.900807">
        <ele>1099</ele>
        <time>2021-01-19T12:29:39Z</time>
      </trkpt>
      <trkpt lat="45.991369" lon="13.900962">
        <ele>1098</ele>
        <time>2021-01-19T12:29:42Z</time>
      </trkpt>
      <trkpt lat="45.991355" lon="13.901018">
        <ele>1085</ele>
        <time>2021-01-19T12:30:09Z</time>
      </trkpt>
      <trkpt lat="45.991355" lon="13.901018">
        <ele>1048</ele>
        <time>2021-01-19T12:31:35Z</time>
      </trkpt>
    </trkseg>
    <trkseg>
      <trkpt lat="45.991651" lon="13.899938">
        <ele>1098</ele>
        <time>2021-01-19T12:50:26Z</time>
      </trkpt>
      <trkpt lat="45.991651" lon="13.899938">
        <ele>1098</ele>
        <time>2021-01-19T12:50:26Z</time>
      </trkpt>
      <trkpt lat="45.991651" lon="13.899938">
        <ele>1098</ele>
        <time>2021-01-19T12:50:31Z</time>
      </trkpt>
      <trkpt lat="45.991651" lon="13.899938">
        <ele>1098</ele>
        <time>2021-01-19T12:51:18Z</time>
      </trkpt>
      <trkpt lat="45.991888" lon="13.899838">
        <ele>1098</ele>
        <time>2021-01-19T12:51:19Z</time>
      </trkpt>
      <trkpt lat="45.991998" lon="13.899822">
        <ele>1097</ele>
        <time>2021-01-19T12:51:23Z</time>
      </trkpt>
      <trkpt lat="45.992099" lon="13.8998">
        <ele>1097</ele>
        <time>2021-01-19T12:51:26Z</time>
      </trkpt>
      <trkpt lat="45.992187" lon="13.899767">
        <ele>1096</ele>
        <time>2021-01-19T12:51:28Z</time>
      </trkpt>
      <trkpt lat="45.992273" lon="13.899712">
        <ele>1096</ele>
        <time>2021-01-19T12:51:30Z</time>
      </trkpt>
      <trkpt lat="45.992398" lon="13.899621">
        <ele>1095</ele>
        <time>2021-01-19T12:51:33Z</time>
      </trkpt>
      <trkpt lat="45.992528" lon="13.899526">
        <ele>1094</ele>
        <time>2021-01-19T12:51:36Z</time>
      </trkpt>
      <trkpt lat="45.992677" lon="13.89946">
        <ele>1092</ele>
        <time>2021-01-19T12:51:40Z</time>
      </trkpt>
      <trkpt lat="45.992809" lon="13.899346">
        <ele>1090</ele>
        <time>2021-01-19T12:51:44Z</time>
      </trkpt>
      <trkpt lat="45.992949" lon="13.899221">
        <ele>1089</ele>
        <time>2021-01-19T12:51:47Z</time>
      </trkpt>
      <trkpt lat="45.993108" lon="13.899034">
        <ele>1087</ele>
        <time>2021-01-19T12:51:50Z</time>
      </trkpt>
      <trkpt lat="45.993342" lon="13.89889">
        <ele>1085</ele>
        <time>2021-01-19T12:51:54Z</time>
      </trkpt>
      <trkpt lat="45.993569" lon="13.898729">
        <ele>1083</ele>
        <time>2021-01-19T12:51:58Z</time>
      </trkpt>
      <trkpt lat="45.993827" lon="13.898516">
        <ele>1080</ele>
        <time>2021-01-19T12:52:03Z</time>
      </trkpt>
      <trkpt lat="45.994042" lon="13.898387">
        <ele>1075</ele>
        <time>2021-01-19T12:52:12Z</time>
      </trkpt>
      <trkpt lat="45.99415" lon="13.898245">
        <ele>1071</ele>
        <time>2021-01-19T12:52:19Z</time>
      </trkpt>
      <trkpt lat="45.994257" lon="13.898163">
        <ele>1068</ele>
        <time>2021-01-19T12:52:24Z</time>
      </trkpt>
      <trkpt lat="45.994309" lon="13.898056">
        <ele>1067</ele>
        <time>2021-01-19T12:52:27Z</time>
      </trkpt>
      <trkpt lat="45.99436" lon="13.897914">
        <ele>1066</ele>
        <time>2021-01-19T12:52:30Z</time>
      </trkpt>
      <trkpt lat="45.994411" lon="13.897776">
        <ele>1065</ele>
        <time>2021-01-19T12:52:34Z</time>
      </trkpt>
      <trkpt lat="45.994454" lon="13.897628">
        <ele>1064</ele>
        <time>2021-01-19T12:52:38Z</time>
      </trkpt>
      <trkpt lat="45.994499" lon="13.897479">
        <ele>1062</ele>
        <time>2021-01-19T12:52:42Z</time>
      </trkpt>
      <trkpt lat="45.994523" lon="13.897349">
        <ele>1058</ele>
        <time>2021-01-19T12:53:00Z</time>
      </trkpt>
      <trkpt lat="45.994578" lon="13.897231">
        <ele>1057</ele>
        <time>2021-01-19T12:53:07Z</time>
      </trkpt>
      <trkpt lat="45.994655" lon="13.897135">
        <ele>1056</ele>
        <time>2021-01-19T12:53:13Z</time>
      </trkpt>
      <trkpt lat="45.994749" lon="13.897038">
        <ele>1055</ele>
        <time>2021-01-19T12:53:17Z</time>
      </trkpt>
      <trkpt lat="45.994831" lon="13.896937">
        <ele>1054</ele>
        <time>2021-01-19T12:53:20Z</time>
      </trkpt>
      <trkpt lat="45.994904" lon="13.896794">
        <ele>1053</ele>
        <time>2021-01-19T12:53:23Z</time>
      </trkpt>
      <trkpt lat="45.994973" lon="13.896656">
        <ele>1052</ele>
        <time>2021-01-19T12:53:26Z</time>
      </trkpt>
      <trkpt lat="45.995045" lon="13.896509">
        <ele>1051</ele>
        <time>2021-01-19T12:53:29Z</time>
      </trkpt>
      <trkpt lat="45.995109" lon="13.896369">
        <ele>1050</ele>
        <time>2021-01-19T12:53:32Z</time>
      </trkpt>
      <trkpt lat="45.995198" lon="13.896215">
        <ele>1050</ele>
        <time>2021-01-19T12:53:35Z</time>
      </trkpt>
      <trkpt lat="45.995244" lon="13.896089">
        <ele>1045</ele>
        <time>2021-01-19T12:53:48Z</time>
      </trkpt>
      <trkpt lat="45.995286" lon="13.895961">
        <ele>1042</ele>
        <time>2021-01-19T12:53:54Z</time>
      </trkpt>
      <trkpt lat="45.995359" lon="13.895846">
        <ele>1040</ele>
        <time>2021-01-19T12:54:00Z</time>
      </trkpt>
      <trkpt lat="45.995418" lon="13.895745">
        <ele>1039</ele>
        <time>2021-01-19T12:54:04Z</time>
      </trkpt>
      <trkpt lat="45.995495" lon="13.89562">
        <ele>1038</ele>
        <time>2021-01-19T12:54:08Z</time>
      </trkpt>
      <trkpt lat="45.995582" lon="13.895504">
        <ele>1036</ele>
        <time>2021-01-19T12:54:12Z</time>
      </trkpt>
      <trkpt lat="45.995675" lon="13.895412">
        <ele>1035</ele>
        <time>2021-01-19T12:54:15Z</time>
      </trkpt>
      <trkpt lat="45.995754" lon="13.895348">
        <ele>1035</ele>
        <time>2021-01-19T12:54:18Z</time>
      </trkpt>
      <trkpt lat="45.995846" lon="13.895253">
        <ele>1033</ele>
        <time>2021-01-19T12:54:22Z</time>
      </trkpt>
      <trkpt lat="45.995973" lon="13.89517">
        <ele>1032</ele>
        <time>2021-01-19T12:54:26Z</time>
      </trkpt>
      <trkpt lat="45.996079" lon="13.895099">
        <ele>1030</ele>
        <time>2021-01-19T12:54:30Z</time>
      </trkpt>
      <trkpt lat="45.996164" lon="13.89498">
        <ele>1026</ele>
        <time>2021-01-19T12:54:42Z</time>
      </trkpt>
      <trkpt lat="45.996264" lon="13.894861">
        <ele>1024</ele>
        <time>2021-01-19T12:54:45Z</time>
      </trkpt>
      <trkpt lat="45.99634" lon="13.894751">
        <ele>1023</ele>
        <time>2021-01-19T12:54:48Z</time>
      </trkpt>
      <trkpt lat="45.996413" lon="13.894669">
        <ele>1023</ele>
        <time>2021-01-19T12:54:51Z</time>
      </trkpt>
      <trkpt lat="45.996499" lon="13.894567">
        <ele>1021</ele>
        <time>2021-01-19T12:54:55Z</time>
      </trkpt>
      <trkpt lat="45.996582" lon="13.894478">
        <ele>1020</ele>
        <time>2021-01-19T12:54:59Z</time>
      </trkpt>
      <trkpt lat="45.996699" lon="13.894431">
        <ele>1019</ele>
        <time>2021-01-19T12:55:04Z</time>
      </trkpt>
      <trkpt lat="45.996799" lon="13.894325">
        <ele>1018</ele>
        <time>2021-01-19T12:55:09Z</time>
      </trkpt>
      <trkpt lat="45.996855" lon="13.894213">
        <ele>1018</ele>
        <time>2021-01-19T12:55:12Z</time>
      </trkpt>
      <trkpt lat="45.996947" lon="13.894157">
        <ele>1017</ele>
        <time>2021-01-19T12:55:16Z</time>
      </trkpt>
      <trkpt lat="45.997044" lon="13.89415">
        <ele>1016</ele>
        <time>2021-01-19T12:55:20Z</time>
      </trkpt>
      <trkpt lat="45.997134" lon="13.894145">
        <ele>1009</ele>
        <time>2021-01-19T12:55:46Z</time>
      </trkpt>
      <trkpt lat="45.997237" lon="13.894083">
        <ele>1008</ele>
        <time>2021-01-19T12:55:50Z</time>
      </trkpt>
      <trkpt lat="45.997346" lon="13.894013">
        <ele>1008</ele>
        <time>2021-01-19T12:55:53Z</time>
      </trkpt>
      <trkpt lat="45.997435" lon="13.893927">
        <ele>1007</ele>
        <time>2021-01-19T12:55:56Z</time>
      </trkpt>
      <trkpt lat="45.997516" lon="13.893833">
        <ele>1007</ele>
        <time>2021-01-19T12:55:59Z</time>
      </trkpt>
      <trkpt lat="45.997587" lon="13.893744">
        <ele>1006</ele>
        <time>2021-01-19T12:56:02Z</time>
      </trkpt>
      <trkpt lat="45.997653" lon="13.89365">
        <ele>1006</ele>
        <time>2021-01-19T12:56:05Z</time>
      </trkpt>
      <trkpt lat="45.997718" lon="13.893526">
        <ele>1006</ele>
        <time>2021-01-19T12:56:08Z</time>
      </trkpt>
      <trkpt lat="45.997814" lon="13.893365">
        <ele>1005</ele>
        <time>2021-01-19T12:56:13Z</time>
      </trkpt>
      <trkpt lat="45.997907" lon="13.893246">
        <ele>1005</ele>
        <time>2021-01-19T12:56:18Z</time>
      </trkpt>
      <trkpt lat="45.997996" lon="13.893115">
        <ele>1004</ele>
        <time>2021-01-19T12:56:23Z</time>
      </trkpt>
      <trkpt lat="45.998072" lon="13.892982">
        <ele>1003</ele>
        <time>2021-01-19T12:56:27Z</time>
      </trkpt>
      <trkpt lat="45.998147" lon="13.892836">
        <ele>1002</ele>
        <time>2021-01-19T12:56:31Z</time>
      </trkpt>
      <trkpt lat="45.998215" lon="13.892733">
        <ele>1002</ele>
        <time>2021-01-19T12:56:34Z</time>
      </trkpt>
      <trkpt lat="45.998292" lon="13.892612">
        <ele>1001</ele>
        <time>2021-01-19T12:56:37Z</time>
      </trkpt>
      <trkpt lat="45.998366" lon="13.892494">
        <ele>1000</ele>
        <time>2021-01-19T12:56:40Z</time>
      </trkpt>
      <trkpt lat="45.99844" lon="13.892346">
        <ele>998</ele>
        <time>2021-01-19T12:56:43Z</time>
      </trkpt>
      <trkpt lat="45.998538" lon="13.892198">
        <ele>997</ele>
        <time>2021-01-19T12:56:47Z</time>
      </trkpt>
      <trkpt lat="45.99865" lon="13.89206">
        <ele>995</ele>
        <time>2021-01-19T12:56:51Z</time>
      </trkpt>
      <trkpt lat="45.998761" lon="13.891913">
        <ele>994</ele>
        <time>2021-01-19T12:56:54Z</time>
      </trkpt>
      <trkpt lat="45.998893" lon="13.89176">
        <ele>992</ele>
        <time>2021-01-19T12:56:58Z</time>
      </trkpt>
      <trkpt lat="45.999065" lon="13.891634">
        <ele>989</ele>
        <time>2021-01-19T12:57:02Z</time>
      </trkpt>
      <trkpt lat="45.999233" lon="13.891539">
        <ele>988</ele>
        <time>2021-01-19T12:57:05Z</time>
      </trkpt>
      <trkpt lat="45.999404" lon="13.891475">
        <ele>985</ele>
        <time>2021-01-19T12:57:10Z</time>
      </trkpt>
      <trkpt lat="45.999479" lon="13.891397">
        <ele>973</ele>
        <time>2021-01-19T12:57:33Z</time>
      </trkpt>
      <trkpt lat="45.999563" lon="13.891322">
        <ele>972</ele>
        <time>2021-01-19T12:57:37Z</time>
      </trkpt>
      <trkpt lat="45.999668" lon="13.891255">
        <ele>970</ele>
        <time>2021-01-19T12:57:42Z</time>
      </trkpt>
      <trkpt lat="45.999751" lon="13.891182">
        <ele>969</ele>
        <time>2021-01-19T12:57:45Z</time>
      </trkpt>
      <trkpt lat="45.999829" lon="13.891111">
        <ele>968</ele>
        <time>2021-01-19T12:57:48Z</time>
      </trkpt>
      <trkpt lat="45.99986" lon="13.890987">
        <ele>966</ele>
        <time>2021-01-19T12:57:52Z</time>
      </trkpt>
      <trkpt lat="45.999823" lon="13.890848">
        <ele>965</ele>
        <time>2021-01-19T12:57:56Z</time>
      </trkpt>
      <trkpt lat="45.99975" lon="13.890723">
        <ele>964</ele>
        <time>2021-01-19T12:57:59Z</time>
      </trkpt>
      <trkpt lat="45.999656" lon="13.890661">
        <ele>963</ele>
        <time>2021-01-19T12:58:02Z</time>
      </trkpt>
      <trkpt lat="45.99954" lon="13.890629">
        <ele>962</ele>
        <time>2021-01-19T12:58:06Z</time>
      </trkpt>
      <trkpt lat="45.999447" lon="13.89055">
        <ele>960</ele>
        <time>2021-01-19T12:58:10Z</time>
      </trkpt>
      <trkpt lat="45.999358" lon="13.890416">
        <ele>958</ele>
        <time>2021-01-19T12:58:14Z</time>
      </trkpt>
      <trkpt lat="45.999307" lon="13.890236">
        <ele>955</ele>
        <time>2021-01-19T12:58:18Z</time>
      </trkpt>
      <trkpt lat="45.999367" lon="13.890042">
        <ele>953</ele>
        <time>2021-01-19T12:58:22Z</time>
      </trkpt>
      <trkpt lat="45.999491" lon="13.890008">
        <ele>950</ele>
        <time>2021-01-19T12:58:27Z</time>
      </trkpt>
      <trkpt lat="45.999613" lon="13.890031">
        <ele>948</ele>
        <time>2021-01-19T12:58:31Z</time>
      </trkpt>
      <trkpt lat="45.999648" lon="13.890045">
        <ele>937</ele>
        <time>2021-01-19T12:58:56Z</time>
      </trkpt>
      <trkpt lat="45.999648" lon="13.890045">
        <ele>937</ele>
        <time>2021-01-19T12:59:48Z</time>
      </trkpt>
      <trkpt lat="45.999878" lon="13.890202">
        <ele>935</ele>
        <time>2021-01-19T12:59:49Z</time>
      </trkpt>
      <trkpt lat="45.999991" lon="13.890283">
        <ele>935</ele>
        <time>2021-01-19T12:59:52Z</time>
      </trkpt>
      <trkpt lat="46.000045" lon="13.890318">
        <ele>939</ele>
        <time>2021-01-19T13:00:20Z</time>
      </trkpt>
      <trkpt lat="46.000045" lon="13.890318">
        <ele>939</ele>
        <time>2021-01-19T13:00:31Z</time>
      </trkpt>
      <trkpt lat="46.000281" lon="13.890433">
        <ele>941</ele>
        <time>2021-01-19T13:00:32Z</time>
      </trkpt>
      <trkpt lat="46.000382" lon="13.890481">
        <ele>941</ele>
        <time>2021-01-19T13:00:35Z</time>
      </trkpt>
      <trkpt lat="46.000482" lon="13.89054">
        <ele>941</ele>
        <time>2021-01-19T13:00:38Z</time>
      </trkpt>
      <trkpt lat="46.000568" lon="13.890584">
        <ele>942</ele>
        <time>2021-01-19T13:00:48Z</time>
      </trkpt>
      <trkpt lat="46.000653" lon="13.890638">
        <ele>942</ele>
        <time>2021-01-19T13:00:54Z</time>
      </trkpt>
      <trkpt lat="46.000763" lon="13.890676">
        <ele>945</ele>
        <time>2021-01-19T13:01:24Z</time>
      </trkpt>
      <trkpt lat="46.000865" lon="13.890653">
        <ele>945</ele>
        <time>2021-01-19T13:01:28Z</time>
      </trkpt>
      <trkpt lat="46.000907" lon="13.890641">
        <ele>945</ele>
        <time>2021-01-19T13:01:56Z</time>
      </trkpt>
      <trkpt lat="46.000907" lon="13.890641">
        <ele>945</ele>
        <time>2021-01-19T13:03:29Z</time>
      </trkpt>
      <trkpt lat="46.001157" lon="13.890564">
        <ele>945</ele>
        <time>2021-01-19T13:03:30Z</time>
      </trkpt>
      <trkpt lat="46.001201" lon="13.890555">
        <ele>944</ele>
        <time>2021-01-19T13:03:57Z</time>
      </trkpt>
      <trkpt lat="46.001201" lon="13.890555">
        <ele>944</ele>
        <time>2021-01-19T13:04:07Z</time>
      </trkpt>
      <trkpt lat="46.001487" lon="13.890399">
        <ele>944</ele>
        <time>2021-01-19T13:04:08Z</time>
      </trkpt>
      <trkpt lat="46.001667" lon="13.890228">
        <ele>944</ele>
        <time>2021-01-19T13:04:32Z</time>
      </trkpt>
      <trkpt lat="46.001768" lon="13.890151">
        <ele>944</ele>
        <time>2021-01-19T13:04:33Z</time>
      </trkpt>
      <trkpt lat="46.001883" lon="13.890084">
        <ele>944</ele>
        <time>2021-01-19T13:04:34Z</time>
      </trkpt>
      <trkpt lat="46.001977" lon="13.890048">
        <ele>944</ele>
        <time>2021-01-19T13:04:36Z</time>
      </trkpt>
      <trkpt lat="46.002091" lon="13.890009">
        <ele>947</ele>
        <time>2021-01-19T13:05:08Z</time>
      </trkpt>
      <trkpt lat="46.00219" lon="13.889991">
        <ele>948</ele>
        <time>2021-01-19T13:05:11Z</time>
      </trkpt>
      <trkpt lat="46.00232" lon="13.88997">
        <ele>948</ele>
        <time>2021-01-19T13:05:17Z</time>
      </trkpt>
      <trkpt lat="46.002372" lon="13.889963">
        <ele>951</ele>
        <time>2021-01-19T13:05:44Z</time>
      </trkpt>
      <trkpt lat="46.002372" lon="13.889963">
        <ele>951</ele>
        <time>2021-01-19T13:05:50Z</time>
      </trkpt>
      <trkpt lat="46.002594" lon="13.889881">
        <ele>951</ele>
        <time>2021-01-19T13:05:51Z</time>
      </trkpt>
      <trkpt lat="46.002699" lon="13.889841">
        <ele>952</ele>
        <time>2021-01-19T13:06:03Z</time>
      </trkpt>
      <trkpt lat="46.002809" lon="13.889769">
        <ele>952</ele>
        <time>2021-01-19T13:06:14Z</time>
      </trkpt>
      <trkpt lat="46.002903" lon="13.889681">
        <ele>952</ele>
        <time>2021-01-19T13:06:23Z</time>
      </trkpt>
      <trkpt lat="46.002996" lon="13.889612">
        <ele>953</ele>
        <time>2021-01-19T13:06:42Z</time>
      </trkpt>
      <trkpt lat="46.003069" lon="13.889529">
        <ele>954</ele>
        <time>2021-01-19T13:07:00Z</time>
      </trkpt>
      <trkpt lat="46.003073" lon="13.889523">
        <ele>954</ele>
        <time>2021-01-19T13:07:24Z</time>
      </trkpt>
      <trkpt lat="46.003073" lon="13.889523">
        <ele>954</ele>
        <time>2021-01-19T13:07:54Z</time>
      </trkpt>
      <trkpt lat="46.003265" lon="13.889319">
        <ele>954</ele>
        <time>2021-01-19T13:07:55Z</time>
      </trkpt>
      <trkpt lat="46.003325" lon="13.889222">
        <ele>953</ele>
        <time>2021-01-19T13:08:05Z</time>
      </trkpt>
      <trkpt lat="46.003472" lon="13.889082">
        <ele>953</ele>
        <time>2021-01-19T13:08:08Z</time>
      </trkpt>
      <trkpt lat="46.003553" lon="13.888976">
        <ele>953</ele>
        <time>2021-01-19T13:08:12Z</time>
      </trkpt>
      <trkpt lat="46.003626" lon="13.888875">
        <ele>953</ele>
        <time>2021-01-19T13:08:13Z</time>
      </trkpt>
      <trkpt lat="46.003711" lon="13.888736">
        <ele>953</ele>
        <time>2021-01-19T13:08:19Z</time>
      </trkpt>
      <trkpt lat="46.003763" lon="13.888607">
        <ele>954</ele>
        <time>2021-01-19T13:08:27Z</time>
      </trkpt>
      <trkpt lat="46.003766" lon="13.8886">
        <ele>957</ele>
        <time>2021-01-19T13:08:50Z</time>
      </trkpt>
      <trkpt lat="46.003766" lon="13.8886">
        <ele>957</ele>
        <time>2021-01-19T13:09:53Z</time>
      </trkpt>
      <trkpt lat="46.003944" lon="13.888327">
        <ele>959</ele>
        <time>2021-01-19T13:09:54Z</time>
      </trkpt>
      <trkpt lat="46.003997" lon="13.88821">
        <ele>959</ele>
        <time>2021-01-19T13:09:57Z</time>
      </trkpt>
      <trkpt lat="46.004026" lon="13.88816">
        <ele>960</ele>
        <time>2021-01-19T13:10:23Z</time>
      </trkpt>
      <trkpt lat="46.004026" lon="13.88816">
        <ele>960</ele>
        <time>2021-01-19T13:10:40Z</time>
      </trkpt>
      <trkpt lat="46.004218" lon="13.887918">
        <ele>960</ele>
        <time>2021-01-19T13:10:41Z</time>
      </trkpt>
      <trkpt lat="46.004285" lon="13.887806">
        <ele>960</ele>
        <time>2021-01-19T13:10:58Z</time>
      </trkpt>
      <trkpt lat="46.004345" lon="13.887692">
        <ele>959</ele>
        <time>2021-01-19T13:11:12Z</time>
      </trkpt>
      <trkpt lat="46.004411" lon="13.887589">
        <ele>959</ele>
        <time>2021-01-19T13:11:20Z</time>
      </trkpt>
      <trkpt lat="46.004497" lon="13.887517">
        <ele>959</ele>
        <time>2021-01-19T13:11:43Z</time>
      </trkpt>
      <trkpt lat="46.004582" lon="13.887473">
        <ele>960</ele>
        <time>2021-01-19T13:11:49Z</time>
      </trkpt>
      <trkpt lat="46.004696" lon="13.887439">
        <ele>960</ele>
        <time>2021-01-19T13:12:10Z</time>
      </trkpt>
      <trkpt lat="46.004838" lon="13.887432">
        <ele>960</ele>
        <time>2021-01-19T13:12:20Z</time>
      </trkpt>
      <trkpt lat="46.004901" lon="13.887421">
        <ele>961</ele>
        <time>2021-01-19T13:12:46Z</time>
      </trkpt>
      <trkpt lat="46.004901" lon="13.887421">
        <ele>961</ele>
        <time>2021-01-19T13:14:11Z</time>
      </trkpt>
      <trkpt lat="46.00516" lon="13.887393">
        <ele>961</ele>
        <time>2021-01-19T13:14:12Z</time>
      </trkpt>
      <trkpt lat="46.005203" lon="13.887389">
        <ele>963</ele>
        <time>2021-01-19T13:14:38Z</time>
      </trkpt>
      <trkpt lat="46.005203" lon="13.887389">
        <ele>963</ele>
        <time>2021-01-19T13:17:04Z</time>
      </trkpt>
      <trkpt lat="46.005632" lon="13.887499">
        <ele>965</ele>
        <time>2021-01-19T13:17:05Z</time>
      </trkpt>
      <trkpt lat="46.005712" lon="13.8875">
        <ele>965</ele>
        <time>2021-01-19T13:17:32Z</time>
      </trkpt>
      <trkpt lat="46.005712" lon="13.8875">
        <ele>965</ele>
        <time>2021-01-19T13:17:56Z</time>
      </trkpt>
      <trkpt lat="46.006019" lon="13.887549">
        <ele>965</ele>
        <time>2021-01-19T13:17:57Z</time>
      </trkpt>
      <trkpt lat="46.006127" lon="13.887579">
        <ele>965</ele>
        <time>2021-01-19T13:18:09Z</time>
      </trkpt>
      <trkpt lat="46.00625" lon="13.887588">
        <ele>965</ele>
        <time>2021-01-19T13:18:27Z</time>
      </trkpt>
      <trkpt lat="46.006366" lon="13.887578">
        <ele>966</ele>
        <time>2021-01-19T13:18:31Z</time>
      </trkpt>
      <trkpt lat="46.006472" lon="13.887554">
        <ele>966</ele>
        <time>2021-01-19T13:18:33Z</time>
      </trkpt>
      <trkpt lat="46.006595" lon="13.887528">
        <ele>966</ele>
        <time>2021-01-19T13:18:36Z</time>
      </trkpt>
      <trkpt lat="46.006707" lon="13.887499">
        <ele>966</ele>
        <time>2021-01-19T13:18:44Z</time>
      </trkpt>
      <trkpt lat="46.006815" lon="13.887468">
        <ele>967</ele>
        <time>2021-01-19T13:19:10Z</time>
      </trkpt>
      <trkpt lat="46.006916" lon="13.887448">
        <ele>967</ele>
        <time>2021-01-19T13:19:13Z</time>
      </trkpt>
      <trkpt lat="46.007005" lon="13.887417">
        <ele>967</ele>
        <time>2021-01-19T13:19:16Z</time>
      </trkpt>
      <trkpt lat="46.007105" lon="13.887376">
        <ele>967</ele>
        <time>2021-01-19T13:19:24Z</time>
      </trkpt>
      <trkpt lat="46.007194" lon="13.887295">
        <ele>967</ele>
        <time>2021-01-19T13:19:30Z</time>
      </trkpt>
      <trkpt lat="46.007249" lon="13.887189">
        <ele>968</ele>
        <time>2021-01-19T13:19:37Z</time>
      </trkpt>
      <trkpt lat="46.007309" lon="13.88708">
        <ele>968</ele>
        <time>2021-01-19T13:19:47Z</time>
      </trkpt>
      <trkpt lat="46.00737" lon="13.886968">
        <ele>968</ele>
        <time>2021-01-19T13:19:54Z</time>
      </trkpt>
      <trkpt lat="46.007425" lon="13.886859">
        <ele>968</ele>
        <time>2021-01-19T13:20:05Z</time>
      </trkpt>
      <trkpt lat="46.007491" lon="13.886752">
        <ele>968</ele>
        <time>2021-01-19T13:20:15Z</time>
      </trkpt>
      <trkpt lat="46.007569" lon="13.88668">
        <ele>967</ele>
        <time>2021-01-19T13:20:22Z</time>
      </trkpt>
      <trkpt lat="46.00765" lon="13.88662">
        <ele>966</ele>
        <time>2021-01-19T13:20:30Z</time>
      </trkpt>
      <trkpt lat="46.007741" lon="13.886573">
        <ele>964</ele>
        <time>2021-01-19T13:20:40Z</time>
      </trkpt>
      <trkpt lat="46.007836" lon="13.88653">
        <ele>963</ele>
        <time>2021-01-19T13:20:49Z</time>
      </trkpt>
      <trkpt lat="46.007914" lon="13.886444">
        <ele>963</ele>
        <time>2021-01-19T13:20:59Z</time>
      </trkpt>
      <trkpt lat="46.007956" lon="13.886326">
        <ele>963</ele>
        <time>2021-01-19T13:21:07Z</time>
      </trkpt>
      <trkpt lat="46.00799" lon="13.886201">
        <ele>963</ele>
        <time>2021-01-19T13:21:21Z</time>
      </trkpt>
      <trkpt lat="46.008084" lon="13.88616">
        <ele>964</ele>
        <time>2021-01-19T13:21:36Z</time>
      </trkpt>
      <trkpt lat="46.00818" lon="13.886154">
        <ele>964</ele>
        <time>2021-01-19T13:21:46Z</time>
      </trkpt>
      <trkpt lat="46.008272" lon="13.886141">
        <ele>964</ele>
        <time>2021-01-19T13:21:52Z</time>
      </trkpt>
      <trkpt lat="46.008366" lon="13.886117">
        <ele>964</ele>
        <time>2021-01-19T13:22:01Z</time>
      </trkpt>
      <trkpt lat="46.008465" lon="13.886087">
        <ele>965</ele>
        <time>2021-01-19T13:22:14Z</time>
      </trkpt>
      <trkpt lat="46.008553" lon="13.886044">
        <ele>965</ele>
        <time>2021-01-19T13:22:21Z</time>
      </trkpt>
      <trkpt lat="46.008645" lon="13.885986">
        <ele>965</ele>
        <time>2021-01-19T13:22:33Z</time>
      </trkpt>
      <trkpt lat="46.008738" lon="13.885912">
        <ele>966</ele>
        <time>2021-01-19T13:22:46Z</time>
      </trkpt>
      <trkpt lat="46.008836" lon="13.88585">
        <ele>966</ele>
        <time>2021-01-19T13:22:54Z</time>
      </trkpt>
      <trkpt lat="46.00891" lon="13.885797">
        <ele>967</ele>
        <time>2021-01-19T13:23:25Z</time>
      </trkpt>
      <trkpt lat="46.00891" lon="13.885797">
        <ele>967</ele>
        <time>2021-01-19T13:24:47Z</time>
      </trkpt>
      <trkpt lat="46.008772" lon="13.885497">
        <ele>967</ele>
        <time>2021-01-19T13:24:48Z</time>
      </trkpt>
      <trkpt lat="46.008689" lon="13.885426">
        <ele>967</ele>
        <time>2021-01-19T13:24:50Z</time>
      </trkpt>
      <trkpt lat="46.008597" lon="13.885348">
        <ele>966</ele>
        <time>2021-01-19T13:24:52Z</time>
      </trkpt>
      <trkpt lat="46.008507" lon="13.885243">
        <ele>966</ele>
        <time>2021-01-19T13:24:54Z</time>
      </trkpt>
      <trkpt lat="46.008544" lon="13.885105">
        <ele>966</ele>
        <time>2021-01-19T13:24:57Z</time>
      </trkpt>
      <trkpt lat="46.008569" lon="13.885083">
        <ele>958</ele>
        <time>2021-01-19T13:25:23Z</time>
      </trkpt>
      <trkpt lat="46.008569" lon="13.885083">
        <ele>958</ele>
        <time>2021-01-19T13:28:02Z</time>
      </trkpt>
      <trkpt lat="46.008655" lon="13.88477">
        <ele>950</ele>
        <time>2021-01-19T13:28:03Z</time>
      </trkpt>
      <trkpt lat="46.008721" lon="13.884672">
        <ele>950</ele>
        <time>2021-01-19T13:28:10Z</time>
      </trkpt>
      <trkpt lat="46.008745" lon="13.884536">
        <ele>950</ele>
        <time>2021-01-19T13:28:27Z</time>
      </trkpt>
      <trkpt lat="46.008748" lon="13.884532">
        <ele>949</ele>
        <time>2021-01-19T13:28:52Z</time>
      </trkpt>
      <trkpt lat="46.008748" lon="13.884532">
        <ele>949</ele>
        <time>2021-01-19T13:30:40Z</time>
      </trkpt>
      <trkpt lat="46.008598" lon="13.884289">
        <ele>948</ele>
        <time>2021-01-19T13:30:41Z</time>
      </trkpt>
      <trkpt lat="46.008596" lon="13.884289">
        <ele>948</ele>
        <time>2021-01-19T13:31:03Z</time>
      </trkpt>
      <trkpt lat="46.008596" lon="13.884289">
        <ele>948</ele>
        <time>2021-01-19T13:32:42Z</time>
      </trkpt>
      <trkpt lat="46.008514" lon="13.883978">
        <ele>950</ele>
        <time>2021-01-19T13:32:43Z</time>
      </trkpt>
      <trkpt lat="46.008531" lon="13.883916">
        <ele>950</ele>
        <time>2021-01-19T13:33:11Z</time>
      </trkpt>
      <trkpt lat="46.008531" lon="13.883916">
        <ele>896</ele>
        <time>2021-01-19T13:36:15Z</time>
      </trkpt>
    </trkseg>
  </trk>
</gpx>
